<?xml version="1.0" encoding="UTF-8"?>
<gpx xmlns="http://www.topografix.com/GPX/1/1" xmlns:gpsies="http://www.gpsies.com/GPX/1/0" creator="GPSies http://www.gpsies.com - taoz-2" version="1.1" xmlns:xsi="http://www.w3.org/2001/XMLSchema-instance" xsi:schemaLocation="http://www.topografix.com/GPX/1/1 http://www.topografix.com/GPX/1/1/gpx.xsd http://www.gpsies.com/GPX/1/0 http://www.gpsies.com/gpsies.xsd">
  <metadata>
    <name>taoz-2</name>
    <author>
      <name>igor968</name>
      <link href="http://www.gpsies.com/mapUser.do?username=igor968">
        <text>igor968 on GPSies.com</text>
        <type>GPSiesUserOnWeb</type>
      </link>
    </author>
    <link href="http://www.gpsies.com/map.do?fileId=imhztfpugjbbniou">
      <text>taoz-2 on GPSies.com</text>
      <type>trackOnWeb</type>
    </link>
    <time>2017-08-09T20:33:31Z</time>
    <extensions>
      <gpsies:property>round trip</gpsies:property>
      <gpsies:trackLengthMeter>23318.02906980334</gpsies:trackLengthMeter>
      <gpsies:totalAscentMeter>485.0</gpsies:totalAscentMeter>
      <gpsies:totalDescentMeter>483.0</gpsies:totalDescentMeter>
      <gpsies:minHeightMeter>212.0</gpsies:minHeightMeter>
      <gpsies:maxHeightMeter>402.0</gpsies:maxHeightMeter>
    </extensions>
  </metadata>
  <trk>
    <name>taoz-2 on GPSies.com</name>
    <link href="http://www.gpsies.com/map.do?fileId=imhztfpugjbbniou">
      <type>trackOnWeb</type>
    </link>
    <link href="http://www.gpsies.com/charts/im/map/imhztfpugjbbniou_map.png">
      <type>elevationChartUrlMap</type>
    </link>
    <link href="http://www.gpsies.com/charts/im/mapThumb/imhztfpugjbbniou_mapThumb.png">
      <type>elevationChartUrlMapThumb</type>
    </link>
    <link href="http://www.gpsies.com/charts/im/tab/imhztfpugjbbniou_tab.png">
      <type>elevationChartUrlTab</type>
    </link>
    <trkseg>
      <trkpt lat="31.78202800" lon="35.00214090">
        <ele>269.00000</ele>
        <time>2010-01-01T00:00:00Z</time>
      </trkpt>
      <trkpt lat="31.78202000" lon="35.00214000">
        <ele>269.00000</ele>
        <time>2010-01-01T00:00:00Z</time>
      </trkpt>
      <trkpt lat="31.78139000" lon="35.00231000">
        <ele>263.00000</ele>
        <time>2010-01-01T00:00:26Z</time>
      </trkpt>
      <trkpt lat="31.78152000" lon="35.00294000">
        <ele>267.00000</ele>
        <time>2010-01-01T00:00:48Z</time>
      </trkpt>
      <trkpt lat="31.78171000" lon="35.00362000">
        <ele>266.00000</ele>
        <time>2010-01-01T00:01:12Z</time>
      </trkpt>
      <trkpt lat="31.78183000" lon="35.00427000">
        <ele>266.00000</ele>
        <time>2010-01-01T00:01:35Z</time>
      </trkpt>
      <trkpt lat="31.78197000" lon="35.00452000">
        <ele>269.00000</ele>
        <time>2010-01-01T00:01:45Z</time>
      </trkpt>
      <trkpt lat="31.78203000" lon="35.00457000">
        <ele>270.00000</ele>
        <time>2010-01-01T00:01:48Z</time>
      </trkpt>
      <trkpt lat="31.78228000" lon="35.00473000">
        <ele>272.00000</ele>
        <time>2010-01-01T00:01:59Z</time>
      </trkpt>
      <trkpt lat="31.78239000" lon="35.00481000">
        <ele>273.00000</ele>
        <time>2010-01-01T00:02:04Z</time>
      </trkpt>
      <trkpt lat="31.78266000" lon="35.00515000">
        <ele>281.00000</ele>
        <time>2010-01-01T00:02:20Z</time>
      </trkpt>
      <trkpt lat="31.78276000" lon="35.00523000">
        <ele>283.00000</ele>
        <time>2010-01-01T00:02:25Z</time>
      </trkpt>
      <trkpt lat="31.78283000" lon="35.00525000">
        <ele>284.00000</ele>
        <time>2010-01-01T00:02:28Z</time>
      </trkpt>
      <trkpt lat="31.78292000" lon="35.00524000">
        <ele>284.00000</ele>
        <time>2010-01-01T00:02:32Z</time>
      </trkpt>
      <trkpt lat="31.78303000" lon="35.00519000">
        <ele>284.00000</ele>
        <time>2010-01-01T00:02:36Z</time>
      </trkpt>
      <trkpt lat="31.78320000" lon="35.00504000">
        <ele>284.00000</ele>
        <time>2010-01-01T00:02:45Z</time>
      </trkpt>
      <trkpt lat="31.78338000" lon="35.00495000">
        <ele>286.00000</ele>
        <time>2010-01-01T00:02:53Z</time>
      </trkpt>
      <trkpt lat="31.78345000" lon="35.00493000">
        <ele>286.00000</ele>
        <time>2010-01-01T00:02:56Z</time>
      </trkpt>
      <trkpt lat="31.78354000" lon="35.00493000">
        <ele>288.00000</ele>
        <time>2010-01-01T00:02:59Z</time>
      </trkpt>
      <trkpt lat="31.78438000" lon="35.00528000">
        <ele>293.00000</ele>
        <time>2010-01-01T00:03:35Z</time>
      </trkpt>
      <trkpt lat="31.78476000" lon="35.00551000">
        <ele>299.00000</ele>
        <time>2010-01-01T00:03:52Z</time>
      </trkpt>
      <trkpt lat="31.78487000" lon="35.00559000">
        <ele>301.00000</ele>
        <time>2010-01-01T00:03:57Z</time>
      </trkpt>
      <trkpt lat="31.78508000" lon="35.00579000">
        <ele>304.00000</ele>
        <time>2010-01-01T00:04:08Z</time>
      </trkpt>
      <trkpt lat="31.78531000" lon="35.00608000">
        <ele>305.00000</ele>
        <time>2010-01-01T00:04:21Z</time>
      </trkpt>
      <trkpt lat="31.78539000" lon="35.00627000">
        <ele>306.00000</ele>
        <time>2010-01-01T00:04:29Z</time>
      </trkpt>
      <trkpt lat="31.78543000" lon="35.00651000">
        <ele>309.00000</ele>
        <time>2010-01-01T00:04:37Z</time>
      </trkpt>
      <trkpt lat="31.78550000" lon="35.00675000">
        <ele>312.00000</ele>
        <time>2010-01-01T00:04:46Z</time>
      </trkpt>
      <trkpt lat="31.78559000" lon="35.00691000">
        <ele>314.00000</ele>
        <time>2010-01-01T00:04:52Z</time>
      </trkpt>
      <trkpt lat="31.78558000" lon="35.00691000">
        <ele>315.00000</ele>
        <time>2010-01-01T00:04:53Z</time>
      </trkpt>
      <trkpt lat="31.78567000" lon="35.00703000">
        <ele>316.00000</ele>
        <time>2010-01-01T00:04:58Z</time>
      </trkpt>
      <trkpt lat="31.78581000" lon="35.00712000">
        <ele>318.00000</ele>
        <time>2010-01-01T00:05:04Z</time>
      </trkpt>
      <trkpt lat="31.78607000" lon="35.00721000">
        <ele>322.00000</ele>
        <time>2010-01-01T00:05:15Z</time>
      </trkpt>
      <trkpt lat="31.78630000" lon="35.00726000">
        <ele>325.00000</ele>
        <time>2010-01-01T00:05:25Z</time>
      </trkpt>
      <trkpt lat="31.78680000" lon="35.00741000">
        <ele>333.00000</ele>
        <time>2010-01-01T00:05:45Z</time>
      </trkpt>
      <trkpt lat="31.78699000" lon="35.00743000">
        <ele>334.00000</ele>
        <time>2010-01-01T00:05:53Z</time>
      </trkpt>
      <trkpt lat="31.78710000" lon="35.00741000">
        <ele>333.00000</ele>
        <time>2010-01-01T00:05:57Z</time>
      </trkpt>
      <trkpt lat="31.78726000" lon="35.00728000">
        <ele>332.00000</ele>
        <time>2010-01-01T00:06:05Z</time>
      </trkpt>
      <trkpt lat="31.78730000" lon="35.00720000">
        <ele>332.00000</ele>
        <time>2010-01-01T00:06:08Z</time>
      </trkpt>
      <trkpt lat="31.78734000" lon="35.00703000">
        <ele>332.00000</ele>
        <time>2010-01-01T00:06:14Z</time>
      </trkpt>
      <trkpt lat="31.78739000" lon="35.00657000">
        <ele>334.00000</ele>
        <time>2010-01-01T00:06:30Z</time>
      </trkpt>
      <trkpt lat="31.78747000" lon="35.00623000">
        <ele>337.00000</ele>
        <time>2010-01-01T00:06:42Z</time>
      </trkpt>
      <trkpt lat="31.78757000" lon="35.00590000">
        <ele>338.00000</ele>
        <time>2010-01-01T00:06:54Z</time>
      </trkpt>
      <trkpt lat="31.78781000" lon="35.00545000">
        <ele>340.00000</ele>
        <time>2010-01-01T00:07:12Z</time>
      </trkpt>
      <trkpt lat="31.78868000" lon="35.00426000">
        <ele>350.00000</ele>
        <time>2010-01-01T00:08:05Z</time>
      </trkpt>
      <trkpt lat="31.78879000" lon="35.00415000">
        <ele>349.00000</ele>
        <time>2010-01-01T00:08:11Z</time>
      </trkpt>
      <trkpt lat="31.78890000" lon="35.00407000">
        <ele>350.00000</ele>
        <time>2010-01-01T00:08:16Z</time>
      </trkpt>
      <trkpt lat="31.78914000" lon="35.00401000">
        <ele>352.00000</ele>
        <time>2010-01-01T00:08:26Z</time>
      </trkpt>
      <trkpt lat="31.78940000" lon="35.00401000">
        <ele>356.00000</ele>
        <time>2010-01-01T00:08:37Z</time>
      </trkpt>
      <trkpt lat="31.78985000" lon="35.00404000">
        <ele>361.00000</ele>
        <time>2010-01-01T00:08:55Z</time>
      </trkpt>
      <trkpt lat="31.78984000" lon="35.00404000">
        <ele>361.00000</ele>
        <time>2010-01-01T00:08:55Z</time>
      </trkpt>
      <trkpt lat="31.79006000" lon="35.00406000">
        <ele>364.00000</ele>
        <time>2010-01-01T00:09:04Z</time>
      </trkpt>
      <trkpt lat="31.79178000" lon="35.00435000">
        <ele>377.00000</ele>
        <time>2010-01-01T00:10:13Z</time>
      </trkpt>
      <trkpt lat="31.79279000" lon="35.00441000">
        <ele>389.00000</ele>
        <time>2010-01-01T00:10:54Z</time>
      </trkpt>
      <trkpt lat="31.79294000" lon="35.00446000">
        <ele>390.00000</ele>
        <time>2010-01-01T00:11:00Z</time>
      </trkpt>
      <trkpt lat="31.79308000" lon="35.00455000">
        <ele>392.00000</ele>
        <time>2010-01-01T00:11:07Z</time>
      </trkpt>
      <trkpt lat="31.79319000" lon="35.00457000">
        <ele>392.00000</ele>
        <time>2010-01-01T00:11:11Z</time>
      </trkpt>
      <trkpt lat="31.79337000" lon="35.00455000">
        <ele>392.00000</ele>
        <time>2010-01-01T00:11:18Z</time>
      </trkpt>
      <trkpt lat="31.79352000" lon="35.00449000">
        <ele>394.00000</ele>
        <time>2010-01-01T00:11:25Z</time>
      </trkpt>
      <trkpt lat="31.79360000" lon="35.00444000">
        <ele>395.00000</ele>
        <time>2010-01-01T00:11:28Z</time>
      </trkpt>
      <trkpt lat="31.79358000" lon="35.00446000">
        <ele>395.00000</ele>
        <time>2010-01-01T00:11:29Z</time>
      </trkpt>
      <trkpt lat="31.79390000" lon="35.00402000">
        <ele>399.00000</ele>
        <time>2010-01-01T00:11:49Z</time>
      </trkpt>
      <trkpt lat="31.79400000" lon="35.00384000">
        <ele>398.00000</ele>
        <time>2010-01-01T00:11:56Z</time>
      </trkpt>
      <trkpt lat="31.79407000" lon="35.00364000">
        <ele>398.00000</ele>
        <time>2010-01-01T00:12:04Z</time>
      </trkpt>
      <trkpt lat="31.79441000" lon="35.00302000">
        <ele>393.00000</ele>
        <time>2010-01-01T00:12:29Z</time>
      </trkpt>
      <trkpt lat="31.79449000" lon="35.00290000">
        <ele>393.00000</ele>
        <time>2010-01-01T00:12:34Z</time>
      </trkpt>
      <trkpt lat="31.79462000" lon="35.00275000">
        <ele>393.00000</ele>
        <time>2010-01-01T00:12:41Z</time>
      </trkpt>
      <trkpt lat="31.79489000" lon="35.00251000">
        <ele>393.00000</ele>
        <time>2010-01-01T00:12:55Z</time>
      </trkpt>
      <trkpt lat="31.79565000" lon="35.00171000">
        <ele>385.00000</ele>
        <time>2010-01-01T00:13:36Z</time>
      </trkpt>
      <trkpt lat="31.79580000" lon="35.00149000">
        <ele>385.00000</ele>
        <time>2010-01-01T00:13:45Z</time>
      </trkpt>
      <trkpt lat="31.79591000" lon="35.00125000">
        <ele>385.00000</ele>
        <time>2010-01-01T00:13:54Z</time>
      </trkpt>
      <trkpt lat="31.79591000" lon="35.00110000">
        <ele>385.00000</ele>
        <time>2010-01-01T00:14:00Z</time>
      </trkpt>
      <trkpt lat="31.79587000" lon="35.00100000">
        <ele>384.00000</ele>
        <time>2010-01-01T00:14:03Z</time>
      </trkpt>
      <trkpt lat="31.79582000" lon="35.00092000">
        <ele>383.00000</ele>
        <time>2010-01-01T00:14:07Z</time>
      </trkpt>
      <trkpt lat="31.79565000" lon="35.00079000">
        <ele>382.00000</ele>
        <time>2010-01-01T00:14:15Z</time>
      </trkpt>
      <trkpt lat="31.79541000" lon="35.00066000">
        <ele>379.00000</ele>
        <time>2010-01-01T00:14:25Z</time>
      </trkpt>
      <trkpt lat="31.79532000" lon="35.00064000">
        <ele>378.00000</ele>
        <time>2010-01-01T00:14:29Z</time>
      </trkpt>
      <trkpt lat="31.79505000" lon="35.00064000">
        <ele>375.00000</ele>
        <time>2010-01-01T00:14:40Z</time>
      </trkpt>
      <trkpt lat="31.79491000" lon="35.00066000">
        <ele>375.00000</ele>
        <time>2010-01-01T00:14:46Z</time>
      </trkpt>
      <trkpt lat="31.79453000" lon="35.00079000">
        <ele>376.00000</ele>
        <time>2010-01-01T00:15:01Z</time>
      </trkpt>
      <trkpt lat="31.79443000" lon="35.00079000">
        <ele>375.00000</ele>
        <time>2010-01-01T00:15:05Z</time>
      </trkpt>
      <trkpt lat="31.79433000" lon="35.00067000">
        <ele>374.00000</ele>
        <time>2010-01-01T00:15:11Z</time>
      </trkpt>
      <trkpt lat="31.79410000" lon="35.00058000">
        <ele>374.00000</ele>
        <time>2010-01-01T00:15:21Z</time>
      </trkpt>
      <trkpt lat="31.79400000" lon="35.00049000">
        <ele>374.00000</ele>
        <time>2010-01-01T00:15:26Z</time>
      </trkpt>
      <trkpt lat="31.79402000" lon="35.00039000">
        <ele>374.00000</ele>
        <time>2010-01-01T00:15:29Z</time>
      </trkpt>
      <trkpt lat="31.79407000" lon="35.00031000">
        <ele>374.00000</ele>
        <time>2010-01-01T00:15:33Z</time>
      </trkpt>
      <trkpt lat="31.79433000" lon="35.00024000">
        <ele>373.00000</ele>
        <time>2010-01-01T00:15:43Z</time>
      </trkpt>
      <trkpt lat="31.79455000" lon="35.00014000">
        <ele>372.00000</ele>
        <time>2010-01-01T00:15:53Z</time>
      </trkpt>
      <trkpt lat="31.79557000" lon="34.99946000">
        <ele>364.00000</ele>
        <time>2010-01-01T00:16:40Z</time>
      </trkpt>
      <trkpt lat="31.79571000" lon="34.99940000">
        <ele>364.00000</ele>
        <time>2010-01-01T00:16:46Z</time>
      </trkpt>
      <trkpt lat="31.79611000" lon="34.99932000">
        <ele>363.00000</ele>
        <time>2010-01-01T00:17:02Z</time>
      </trkpt>
      <trkpt lat="31.79646000" lon="34.99915000">
        <ele>359.00000</ele>
        <time>2010-01-01T00:17:17Z</time>
      </trkpt>
      <trkpt lat="31.79654000" lon="34.99914000">
        <ele>358.00000</ele>
        <time>2010-01-01T00:17:20Z</time>
      </trkpt>
      <trkpt lat="31.79682000" lon="34.99916000">
        <ele>354.00000</ele>
        <time>2010-01-01T00:17:32Z</time>
      </trkpt>
      <trkpt lat="31.79695000" lon="34.99912000">
        <ele>354.00000</ele>
        <time>2010-01-01T00:17:37Z</time>
      </trkpt>
      <trkpt lat="31.79770000" lon="34.99882000">
        <ele>352.00000</ele>
        <time>2010-01-01T00:18:09Z</time>
      </trkpt>
      <trkpt lat="31.79797000" lon="34.99874000">
        <ele>351.00000</ele>
        <time>2010-01-01T00:18:20Z</time>
      </trkpt>
      <trkpt lat="31.79856000" lon="34.99843000">
        <ele>346.00000</ele>
        <time>2010-01-01T00:18:46Z</time>
      </trkpt>
      <trkpt lat="31.79889000" lon="34.99830000">
        <ele>345.00000</ele>
        <time>2010-01-01T00:19:00Z</time>
      </trkpt>
      <trkpt lat="31.79966000" lon="34.99815000">
        <ele>342.00000</ele>
        <time>2010-01-01T00:19:31Z</time>
      </trkpt>
      <trkpt lat="31.80020000" lon="34.99802000">
        <ele>340.00000</ele>
        <time>2010-01-01T00:19:53Z</time>
      </trkpt>
      <trkpt lat="31.80041000" lon="34.99794000">
        <ele>339.00000</ele>
        <time>2010-01-01T00:20:02Z</time>
      </trkpt>
      <trkpt lat="31.80126000" lon="34.99747000">
        <ele>333.00000</ele>
        <time>2010-01-01T00:20:39Z</time>
      </trkpt>
      <trkpt lat="31.80138000" lon="34.99738000">
        <ele>333.00000</ele>
        <time>2010-01-01T00:20:45Z</time>
      </trkpt>
      <trkpt lat="31.80161000" lon="34.99717000">
        <ele>332.00000</ele>
        <time>2010-01-01T00:20:57Z</time>
      </trkpt>
      <trkpt lat="31.80178000" lon="34.99704000">
        <ele>331.00000</ele>
        <time>2010-01-01T00:21:05Z</time>
      </trkpt>
      <trkpt lat="31.80224000" lon="34.99676000">
        <ele>326.00000</ele>
        <time>2010-01-01T00:21:26Z</time>
      </trkpt>
      <trkpt lat="31.80248000" lon="34.99666000">
        <ele>322.00000</ele>
        <time>2010-01-01T00:21:36Z</time>
      </trkpt>
      <trkpt lat="31.80268000" lon="34.99660000">
        <ele>320.00000</ele>
        <time>2010-01-01T00:21:44Z</time>
      </trkpt>
      <trkpt lat="31.80284000" lon="34.99659000">
        <ele>319.00000</ele>
        <time>2010-01-01T00:21:50Z</time>
      </trkpt>
      <trkpt lat="31.80317000" lon="34.99663000">
        <ele>318.00000</ele>
        <time>2010-01-01T00:22:04Z</time>
      </trkpt>
      <trkpt lat="31.80334000" lon="34.99661000">
        <ele>318.00000</ele>
        <time>2010-01-01T00:22:11Z</time>
      </trkpt>
      <trkpt lat="31.80366000" lon="34.99652000">
        <ele>320.00000</ele>
        <time>2010-01-01T00:22:24Z</time>
      </trkpt>
      <trkpt lat="31.80398000" lon="34.99640000">
        <ele>320.00000</ele>
        <time>2010-01-01T00:22:37Z</time>
      </trkpt>
      <trkpt lat="31.80413000" lon="34.99637000">
        <ele>319.00000</ele>
        <time>2010-01-01T00:22:43Z</time>
      </trkpt>
      <trkpt lat="31.80465000" lon="34.99637000">
        <ele>313.00000</ele>
        <time>2010-01-01T00:23:04Z</time>
      </trkpt>
      <trkpt lat="31.80497000" lon="34.99629000">
        <ele>309.00000</ele>
        <time>2010-01-01T00:23:17Z</time>
      </trkpt>
      <trkpt lat="31.80527000" lon="34.99618000">
        <ele>310.00000</ele>
        <time>2010-01-01T00:23:30Z</time>
      </trkpt>
      <trkpt lat="31.80549000" lon="34.99620000">
        <ele>309.00000</ele>
        <time>2010-01-01T00:23:39Z</time>
      </trkpt>
      <trkpt lat="31.80580000" lon="34.99621000">
        <ele>309.00000</ele>
        <time>2010-01-01T00:23:51Z</time>
      </trkpt>
      <trkpt lat="31.80592000" lon="34.99618000">
        <ele>308.00000</ele>
        <time>2010-01-01T00:23:56Z</time>
      </trkpt>
      <trkpt lat="31.80606000" lon="34.99611000">
        <ele>306.00000</ele>
        <time>2010-01-01T00:24:02Z</time>
      </trkpt>
      <trkpt lat="31.80657000" lon="34.99580000">
        <ele>302.00000</ele>
        <time>2010-01-01T00:24:25Z</time>
      </trkpt>
      <trkpt lat="31.80720000" lon="34.99528000">
        <ele>298.00000</ele>
        <time>2010-01-01T00:24:56Z</time>
      </trkpt>
      <trkpt lat="31.80746000" lon="34.99489000">
        <ele>293.00000</ele>
        <time>2010-01-01T00:25:13Z</time>
      </trkpt>
      <trkpt lat="31.80766000" lon="34.99464000">
        <ele>293.00000</ele>
        <time>2010-01-01T00:25:24Z</time>
      </trkpt>
      <trkpt lat="31.80788000" lon="34.99446000">
        <ele>293.00000</ele>
        <time>2010-01-01T00:25:35Z</time>
      </trkpt>
      <trkpt lat="31.80796000" lon="34.99421000">
        <ele>297.00000</ele>
        <time>2010-01-01T00:25:44Z</time>
      </trkpt>
      <trkpt lat="31.80794000" lon="34.99353000">
        <ele>308.00000</ele>
        <time>2010-01-01T00:26:07Z</time>
      </trkpt>
      <trkpt lat="31.80793000" lon="34.99344000">
        <ele>311.00000</ele>
        <time>2010-01-01T00:26:10Z</time>
      </trkpt>
      <trkpt lat="31.80789000" lon="34.99337000">
        <ele>312.00000</ele>
        <time>2010-01-01T00:26:13Z</time>
      </trkpt>
      <trkpt lat="31.80774000" lon="34.99327000">
        <ele>314.00000</ele>
        <time>2010-01-01T00:26:20Z</time>
      </trkpt>
      <trkpt lat="31.80756000" lon="34.99321000">
        <ele>316.00000</ele>
        <time>2010-01-01T00:26:28Z</time>
      </trkpt>
      <trkpt lat="31.80730000" lon="34.99307000">
        <ele>320.00000</ele>
        <time>2010-01-01T00:26:39Z</time>
      </trkpt>
      <trkpt lat="31.80721000" lon="34.99300000">
        <ele>322.00000</ele>
        <time>2010-01-01T00:26:43Z</time>
      </trkpt>
      <trkpt lat="31.80718000" lon="34.99292000">
        <ele>325.00000</ele>
        <time>2010-01-01T00:26:46Z</time>
      </trkpt>
      <trkpt lat="31.80718000" lon="34.99288000">
        <ele>326.00000</ele>
        <time>2010-01-01T00:26:48Z</time>
      </trkpt>
      <trkpt lat="31.80724000" lon="34.99284000">
        <ele>327.00000</ele>
        <time>2010-01-01T00:26:50Z</time>
      </trkpt>
      <trkpt lat="31.80745000" lon="34.99280000">
        <ele>328.00000</ele>
        <time>2010-01-01T00:26:59Z</time>
      </trkpt>
      <trkpt lat="31.80782000" lon="34.99253000">
        <ele>333.00000</ele>
        <time>2010-01-01T00:27:16Z</time>
      </trkpt>
      <trkpt lat="31.80789000" lon="34.99250000">
        <ele>333.00000</ele>
        <time>2010-01-01T00:27:19Z</time>
      </trkpt>
      <trkpt lat="31.80802000" lon="34.99245000">
        <ele>334.00000</ele>
        <time>2010-01-01T00:27:25Z</time>
      </trkpt>
      <trkpt lat="31.80832000" lon="34.99244000">
        <ele>336.00000</ele>
        <time>2010-01-01T00:27:37Z</time>
      </trkpt>
      <trkpt lat="31.80788000" lon="34.99169000">
        <ele>339.00000</ele>
        <time>2010-01-01T00:28:08Z</time>
      </trkpt>
      <trkpt lat="31.80788000" lon="34.99152000">
        <ele>338.00000</ele>
        <time>2010-01-01T00:28:14Z</time>
      </trkpt>
      <trkpt lat="31.80769000" lon="34.99145000">
        <ele>341.00000</ele>
        <time>2010-01-01T00:28:22Z</time>
      </trkpt>
      <trkpt lat="31.80755000" lon="34.99129000">
        <ele>342.00000</ele>
        <time>2010-01-01T00:28:29Z</time>
      </trkpt>
      <trkpt lat="31.80733000" lon="34.99092000">
        <ele>343.00000</ele>
        <time>2010-01-01T00:28:45Z</time>
      </trkpt>
      <trkpt lat="31.80718000" lon="34.99072000">
        <ele>343.00000</ele>
        <time>2010-01-01T00:28:54Z</time>
      </trkpt>
      <trkpt lat="31.80693000" lon="34.99052000">
        <ele>343.00000</ele>
        <time>2010-01-01T00:29:06Z</time>
      </trkpt>
      <trkpt lat="31.80678000" lon="34.99045000">
        <ele>343.00000</ele>
        <time>2010-01-01T00:29:12Z</time>
      </trkpt>
      <trkpt lat="31.80633000" lon="34.99047000">
        <ele>345.00000</ele>
        <time>2010-01-01T00:29:30Z</time>
      </trkpt>
      <trkpt lat="31.80608000" lon="34.99050000">
        <ele>345.00000</ele>
        <time>2010-01-01T00:29:41Z</time>
      </trkpt>
      <trkpt lat="31.80555000" lon="34.99067000">
        <ele>345.00000</ele>
        <time>2010-01-01T00:30:03Z</time>
      </trkpt>
      <trkpt lat="31.80436000" lon="34.99148000">
        <ele>351.00000</ele>
        <time>2010-01-01T00:30:58Z</time>
      </trkpt>
      <trkpt lat="31.80417000" lon="34.99155000">
        <ele>351.00000</ele>
        <time>2010-01-01T00:31:06Z</time>
      </trkpt>
      <trkpt lat="31.80390000" lon="34.99152000">
        <ele>352.00000</ele>
        <time>2010-01-01T00:31:16Z</time>
      </trkpt>
      <trkpt lat="31.80377000" lon="34.99147000">
        <ele>353.00000</ele>
        <time>2010-01-01T00:31:22Z</time>
      </trkpt>
      <trkpt lat="31.80365000" lon="34.99134000">
        <ele>354.00000</ele>
        <time>2010-01-01T00:31:28Z</time>
      </trkpt>
      <trkpt lat="31.80359000" lon="34.99119000">
        <ele>354.00000</ele>
        <time>2010-01-01T00:31:34Z</time>
      </trkpt>
      <trkpt lat="31.80358000" lon="34.99093000">
        <ele>352.00000</ele>
        <time>2010-01-01T00:31:43Z</time>
      </trkpt>
      <trkpt lat="31.80364000" lon="34.99056000">
        <ele>350.00000</ele>
        <time>2010-01-01T00:31:56Z</time>
      </trkpt>
      <trkpt lat="31.80379000" lon="34.99008000">
        <ele>351.00000</ele>
        <time>2010-01-01T00:32:13Z</time>
      </trkpt>
      <trkpt lat="31.80387000" lon="34.98986000">
        <ele>352.00000</ele>
        <time>2010-01-01T00:32:21Z</time>
      </trkpt>
      <trkpt lat="31.80402000" lon="34.98946000">
        <ele>356.00000</ele>
        <time>2010-01-01T00:32:36Z</time>
      </trkpt>
      <trkpt lat="31.80434000" lon="34.98879000">
        <ele>350.00000</ele>
        <time>2010-01-01T00:33:02Z</time>
      </trkpt>
      <trkpt lat="31.80457000" lon="34.98841000">
        <ele>349.00000</ele>
        <time>2010-01-01T00:33:18Z</time>
      </trkpt>
      <trkpt lat="31.80463000" lon="34.98826000">
        <ele>349.00000</ele>
        <time>2010-01-01T00:33:24Z</time>
      </trkpt>
      <trkpt lat="31.80465000" lon="34.98809000">
        <ele>350.00000</ele>
        <time>2010-01-01T00:33:30Z</time>
      </trkpt>
      <trkpt lat="31.80465000" lon="34.98792000">
        <ele>350.00000</ele>
        <time>2010-01-01T00:33:35Z</time>
      </trkpt>
      <trkpt lat="31.80457000" lon="34.98708000">
        <ele>345.00000</ele>
        <time>2010-01-01T00:34:04Z</time>
      </trkpt>
      <trkpt lat="31.80457000" lon="34.98661000">
        <ele>342.00000</ele>
        <time>2010-01-01T00:34:20Z</time>
      </trkpt>
      <trkpt lat="31.80456000" lon="34.98648000">
        <ele>341.00000</ele>
        <time>2010-01-01T00:34:25Z</time>
      </trkpt>
      <trkpt lat="31.80451000" lon="34.98628000">
        <ele>340.00000</ele>
        <time>2010-01-01T00:34:32Z</time>
      </trkpt>
      <trkpt lat="31.80446000" lon="34.98621000">
        <ele>339.00000</ele>
        <time>2010-01-01T00:34:35Z</time>
      </trkpt>
      <trkpt lat="31.80440000" lon="34.98617000">
        <ele>339.00000</ele>
        <time>2010-01-01T00:34:38Z</time>
      </trkpt>
      <trkpt lat="31.80433000" lon="34.98614000">
        <ele>338.00000</ele>
        <time>2010-01-01T00:34:41Z</time>
      </trkpt>
      <trkpt lat="31.80426000" lon="34.98615000">
        <ele>338.00000</ele>
        <time>2010-01-01T00:34:43Z</time>
      </trkpt>
      <trkpt lat="31.80416000" lon="34.98619000">
        <ele>338.00000</ele>
        <time>2010-01-01T00:34:48Z</time>
      </trkpt>
      <trkpt lat="31.80410000" lon="34.98625000">
        <ele>338.00000</ele>
        <time>2010-01-01T00:34:51Z</time>
      </trkpt>
      <trkpt lat="31.80402000" lon="34.98640000">
        <ele>337.00000</ele>
        <time>2010-01-01T00:34:57Z</time>
      </trkpt>
      <trkpt lat="31.80394000" lon="34.98662000">
        <ele>336.00000</ele>
        <time>2010-01-01T00:35:05Z</time>
      </trkpt>
      <trkpt lat="31.80386000" lon="34.98676000">
        <ele>335.00000</ele>
        <time>2010-01-01T00:35:11Z</time>
      </trkpt>
      <trkpt lat="31.80354000" lon="34.98716000">
        <ele>333.00000</ele>
        <time>2010-01-01T00:35:29Z</time>
      </trkpt>
      <trkpt lat="31.80345000" lon="34.98724000">
        <ele>332.00000</ele>
        <time>2010-01-01T00:35:34Z</time>
      </trkpt>
      <trkpt lat="31.80336000" lon="34.98738000">
        <ele>333.00000</ele>
        <time>2010-01-01T00:35:40Z</time>
      </trkpt>
      <trkpt lat="31.80328000" lon="34.98745000">
        <ele>332.00000</ele>
        <time>2010-01-01T00:35:44Z</time>
      </trkpt>
      <trkpt lat="31.80316000" lon="34.98754000">
        <ele>331.00000</ele>
        <time>2010-01-01T00:35:50Z</time>
      </trkpt>
      <trkpt lat="31.80299000" lon="34.98761000">
        <ele>329.00000</ele>
        <time>2010-01-01T00:35:57Z</time>
      </trkpt>
      <trkpt lat="31.80274000" lon="34.98766000">
        <ele>328.00000</ele>
        <time>2010-01-01T00:36:07Z</time>
      </trkpt>
      <trkpt lat="31.80249000" lon="34.98767000">
        <ele>325.00000</ele>
        <time>2010-01-01T00:36:17Z</time>
      </trkpt>
      <trkpt lat="31.80228000" lon="34.98774000">
        <ele>321.00000</ele>
        <time>2010-01-01T00:36:26Z</time>
      </trkpt>
      <trkpt lat="31.80215000" lon="34.98789000">
        <ele>321.00000</ele>
        <time>2010-01-01T00:36:33Z</time>
      </trkpt>
      <trkpt lat="31.80202000" lon="34.98815000">
        <ele>325.00000</ele>
        <time>2010-01-01T00:36:43Z</time>
      </trkpt>
      <trkpt lat="31.80192000" lon="34.98826000">
        <ele>325.00000</ele>
        <time>2010-01-01T00:36:49Z</time>
      </trkpt>
      <trkpt lat="31.80186000" lon="34.98830000">
        <ele>325.00000</ele>
        <time>2010-01-01T00:36:51Z</time>
      </trkpt>
      <trkpt lat="31.80179000" lon="34.98832000">
        <ele>325.00000</ele>
        <time>2010-01-01T00:36:54Z</time>
      </trkpt>
      <trkpt lat="31.80165000" lon="34.98829000">
        <ele>322.00000</ele>
        <time>2010-01-01T00:37:00Z</time>
      </trkpt>
      <trkpt lat="31.80147000" lon="34.98816000">
        <ele>316.00000</ele>
        <time>2010-01-01T00:37:08Z</time>
      </trkpt>
      <trkpt lat="31.80121000" lon="34.98792000">
        <ele>310.00000</ele>
        <time>2010-01-01T00:37:22Z</time>
      </trkpt>
      <trkpt lat="31.80106000" lon="34.98781000">
        <ele>308.00000</ele>
        <time>2010-01-01T00:37:29Z</time>
      </trkpt>
      <trkpt lat="31.80087000" lon="34.98769000">
        <ele>307.00000</ele>
        <time>2010-01-01T00:37:37Z</time>
      </trkpt>
      <trkpt lat="31.80066000" lon="34.98762000">
        <ele>305.00000</ele>
        <time>2010-01-01T00:37:46Z</time>
      </trkpt>
      <trkpt lat="31.80052000" lon="34.98762000">
        <ele>303.00000</ele>
        <time>2010-01-01T00:37:52Z</time>
      </trkpt>
      <trkpt lat="31.80027000" lon="34.98767000">
        <ele>300.00000</ele>
        <time>2010-01-01T00:38:02Z</time>
      </trkpt>
      <trkpt lat="31.80010000" lon="34.98775000">
        <ele>299.00000</ele>
        <time>2010-01-01T00:38:09Z</time>
      </trkpt>
      <trkpt lat="31.79966000" lon="34.98803000">
        <ele>296.00000</ele>
        <time>2010-01-01T00:38:29Z</time>
      </trkpt>
      <trkpt lat="31.79945000" lon="34.98818000">
        <ele>295.00000</ele>
        <time>2010-01-01T00:38:39Z</time>
      </trkpt>
      <trkpt lat="31.79922000" lon="34.98846000">
        <ele>294.00000</ele>
        <time>2010-01-01T00:38:52Z</time>
      </trkpt>
      <trkpt lat="31.79908000" lon="34.98870000">
        <ele>291.00000</ele>
        <time>2010-01-01T00:39:02Z</time>
      </trkpt>
      <trkpt lat="31.79891000" lon="34.98903000">
        <ele>289.00000</ele>
        <time>2010-01-01T00:39:15Z</time>
      </trkpt>
      <trkpt lat="31.79886000" lon="34.98909000">
        <ele>289.00000</ele>
        <time>2010-01-01T00:39:18Z</time>
      </trkpt>
      <trkpt lat="31.79879000" lon="34.98912000">
        <ele>289.00000</ele>
        <time>2010-01-01T00:39:21Z</time>
      </trkpt>
      <trkpt lat="31.79872000" lon="34.98912000">
        <ele>288.00000</ele>
        <time>2010-01-01T00:39:24Z</time>
      </trkpt>
      <trkpt lat="31.79865000" lon="34.98910000">
        <ele>287.00000</ele>
        <time>2010-01-01T00:39:27Z</time>
      </trkpt>
      <trkpt lat="31.79857000" lon="34.98902000">
        <ele>286.00000</ele>
        <time>2010-01-01T00:39:31Z</time>
      </trkpt>
      <trkpt lat="31.79850000" lon="34.98892000">
        <ele>286.00000</ele>
        <time>2010-01-01T00:39:35Z</time>
      </trkpt>
      <trkpt lat="31.79834000" lon="34.98851000">
        <ele>286.00000</ele>
        <time>2010-01-01T00:39:51Z</time>
      </trkpt>
      <trkpt lat="31.79839000" lon="34.98840000">
        <ele>286.00000</ele>
        <time>2010-01-01T00:39:55Z</time>
      </trkpt>
      <trkpt lat="31.79844000" lon="34.98829000">
        <ele>286.00000</ele>
        <time>2010-01-01T00:39:59Z</time>
      </trkpt>
      <trkpt lat="31.79863000" lon="34.98809000">
        <ele>285.00000</ele>
        <time>2010-01-01T00:40:10Z</time>
      </trkpt>
      <trkpt lat="31.79872000" lon="34.98795000">
        <ele>286.00000</ele>
        <time>2010-01-01T00:40:15Z</time>
      </trkpt>
      <trkpt lat="31.79930000" lon="34.98664000">
        <ele>282.00000</ele>
        <time>2010-01-01T00:41:06Z</time>
      </trkpt>
      <trkpt lat="31.80003000" lon="34.98554000">
        <ele>271.00000</ele>
        <time>2010-01-01T00:41:53Z</time>
      </trkpt>
      <trkpt lat="31.80012000" lon="34.98536000">
        <ele>271.00000</ele>
        <time>2010-01-01T00:42:00Z</time>
      </trkpt>
      <trkpt lat="31.80045000" lon="34.98446000">
        <ele>261.00000</ele>
        <time>2010-01-01T00:42:34Z</time>
      </trkpt>
      <trkpt lat="31.80053000" lon="34.98418000">
        <ele>264.00000</ele>
        <time>2010-01-01T00:42:44Z</time>
      </trkpt>
      <trkpt lat="31.80064000" lon="34.98372000">
        <ele>261.00000</ele>
        <time>2010-01-01T00:43:00Z</time>
      </trkpt>
      <trkpt lat="31.80067000" lon="34.98352000">
        <ele>258.00000</ele>
        <time>2010-01-01T00:43:07Z</time>
      </trkpt>
      <trkpt lat="31.80066000" lon="34.98296000">
        <ele>256.00000</ele>
        <time>2010-01-01T00:43:26Z</time>
      </trkpt>
      <trkpt lat="31.80070000" lon="34.98220000">
        <ele>256.00000</ele>
        <time>2010-01-01T00:43:52Z</time>
      </trkpt>
      <trkpt lat="31.80072000" lon="34.98199000">
        <ele>254.00000</ele>
        <time>2010-01-01T00:43:59Z</time>
      </trkpt>
      <trkpt lat="31.80070000" lon="34.98170000">
        <ele>252.00000</ele>
        <time>2010-01-01T00:44:09Z</time>
      </trkpt>
      <trkpt lat="31.80068000" lon="34.98161000">
        <ele>252.00000</ele>
        <time>2010-01-01T00:44:12Z</time>
      </trkpt>
      <trkpt lat="31.80036000" lon="34.98105000">
        <ele>250.00000</ele>
        <time>2010-01-01T00:44:35Z</time>
      </trkpt>
      <trkpt lat="31.80027000" lon="34.98082000">
        <ele>249.00000</ele>
        <time>2010-01-01T00:44:44Z</time>
      </trkpt>
      <trkpt lat="31.80025000" lon="34.98069000">
        <ele>248.00000</ele>
        <time>2010-01-01T00:44:48Z</time>
      </trkpt>
      <trkpt lat="31.80021000" lon="34.98063000">
        <ele>248.00000</ele>
        <time>2010-01-01T00:44:51Z</time>
      </trkpt>
      <trkpt lat="31.80021000" lon="34.98062000">
        <ele>248.00000</ele>
        <time>2010-01-01T00:44:51Z</time>
      </trkpt>
      <trkpt lat="31.79998000" lon="34.98014000">
        <ele>247.00000</ele>
        <time>2010-01-01T00:45:10Z</time>
      </trkpt>
      <trkpt lat="31.79988000" lon="34.97978000">
        <ele>247.00000</ele>
        <time>2010-01-01T00:45:23Z</time>
      </trkpt>
      <trkpt lat="31.79989000" lon="34.97961000">
        <ele>246.00000</ele>
        <time>2010-01-01T00:45:29Z</time>
      </trkpt>
      <trkpt lat="31.79998000" lon="34.97934000">
        <ele>244.00000</ele>
        <time>2010-01-01T00:45:38Z</time>
      </trkpt>
      <trkpt lat="31.80001000" lon="34.97917000">
        <ele>243.00000</ele>
        <time>2010-01-01T00:45:44Z</time>
      </trkpt>
      <trkpt lat="31.80013000" lon="34.97896000">
        <ele>242.00000</ele>
        <time>2010-01-01T00:45:53Z</time>
      </trkpt>
      <trkpt lat="31.80054000" lon="34.97837000">
        <ele>237.00000</ele>
        <time>2010-01-01T00:46:19Z</time>
      </trkpt>
      <trkpt lat="31.80058000" lon="34.97818000">
        <ele>236.00000</ele>
        <time>2010-01-01T00:46:26Z</time>
      </trkpt>
      <trkpt lat="31.80042000" lon="34.97742000">
        <ele>233.00000</ele>
        <time>2010-01-01T00:46:52Z</time>
      </trkpt>
      <trkpt lat="31.80037000" lon="34.97747000">
        <ele>233.00000</ele>
        <time>2010-01-01T00:46:55Z</time>
      </trkpt>
      <trkpt lat="31.80027000" lon="34.97749000">
        <ele>233.00000</ele>
        <time>2010-01-01T00:46:59Z</time>
      </trkpt>
      <trkpt lat="31.79994000" lon="34.97748000">
        <ele>235.00000</ele>
        <time>2010-01-01T00:47:12Z</time>
      </trkpt>
      <trkpt lat="31.79986000" lon="34.97743000">
        <ele>235.00000</ele>
        <time>2010-01-01T00:47:16Z</time>
      </trkpt>
      <trkpt lat="31.79972000" lon="34.97730000">
        <ele>236.00000</ele>
        <time>2010-01-01T00:47:23Z</time>
      </trkpt>
      <trkpt lat="31.79956000" lon="34.97711000">
        <ele>235.00000</ele>
        <time>2010-01-01T00:47:32Z</time>
      </trkpt>
      <trkpt lat="31.79883000" lon="34.97615000">
        <ele>234.00000</ele>
        <time>2010-01-01T00:48:16Z</time>
      </trkpt>
      <trkpt lat="31.79861000" lon="34.97595000">
        <ele>233.00000</ele>
        <time>2010-01-01T00:48:27Z</time>
      </trkpt>
      <trkpt lat="31.79843000" lon="34.97585000">
        <ele>233.00000</ele>
        <time>2010-01-01T00:48:35Z</time>
      </trkpt>
      <trkpt lat="31.79832000" lon="34.97581000">
        <ele>233.00000</ele>
        <time>2010-01-01T00:48:39Z</time>
      </trkpt>
      <trkpt lat="31.79818000" lon="34.97579000">
        <ele>234.00000</ele>
        <time>2010-01-01T00:48:45Z</time>
      </trkpt>
      <trkpt lat="31.79791000" lon="34.97581000">
        <ele>234.00000</ele>
        <time>2010-01-01T00:48:56Z</time>
      </trkpt>
      <trkpt lat="31.79791000" lon="34.97582000">
        <ele>234.00000</ele>
        <time>2010-01-01T00:48:56Z</time>
      </trkpt>
      <trkpt lat="31.79782000" lon="34.97584000">
        <ele>234.00000</ele>
        <time>2010-01-01T00:49:00Z</time>
      </trkpt>
      <trkpt lat="31.79748000" lon="34.97601000">
        <ele>232.00000</ele>
        <time>2010-01-01T00:49:15Z</time>
      </trkpt>
      <trkpt lat="31.79711000" lon="34.97635000">
        <ele>232.00000</ele>
        <time>2010-01-01T00:49:34Z</time>
      </trkpt>
      <trkpt lat="31.79632000" lon="34.97714000">
        <ele>229.00000</ele>
        <time>2010-01-01T00:50:15Z</time>
      </trkpt>
      <trkpt lat="31.79619000" lon="34.97725000">
        <ele>227.00000</ele>
        <time>2010-01-01T00:50:21Z</time>
      </trkpt>
      <trkpt lat="31.79608000" lon="34.97731000">
        <ele>226.00000</ele>
        <time>2010-01-01T00:50:26Z</time>
      </trkpt>
      <trkpt lat="31.79593000" lon="34.97734000">
        <ele>225.00000</ele>
        <time>2010-01-01T00:50:32Z</time>
      </trkpt>
      <trkpt lat="31.79579000" lon="34.97730000">
        <ele>223.00000</ele>
        <time>2010-01-01T00:50:38Z</time>
      </trkpt>
      <trkpt lat="31.79529000" lon="34.97700000">
        <ele>219.00000</ele>
        <time>2010-01-01T00:51:01Z</time>
      </trkpt>
      <trkpt lat="31.79530000" lon="34.97666000">
        <ele>216.00000</ele>
        <time>2010-01-01T00:51:12Z</time>
      </trkpt>
      <trkpt lat="31.79519000" lon="34.97653000">
        <ele>217.00000</ele>
        <time>2010-01-01T00:51:18Z</time>
      </trkpt>
      <trkpt lat="31.79480000" lon="34.97624000">
        <ele>223.00000</ele>
        <time>2010-01-01T00:51:37Z</time>
      </trkpt>
      <trkpt lat="31.79501000" lon="34.97590000">
        <ele>221.00000</ele>
        <time>2010-01-01T00:51:51Z</time>
      </trkpt>
      <trkpt lat="31.79530000" lon="34.97543000">
        <ele>217.00000</ele>
        <time>2010-01-01T00:52:11Z</time>
      </trkpt>
      <trkpt lat="31.79534000" lon="34.97538000">
        <ele>217.00000</ele>
        <time>2010-01-01T00:52:13Z</time>
      </trkpt>
      <trkpt lat="31.79526000" lon="34.97525000">
        <ele>218.00000</ele>
        <time>2010-01-01T00:52:19Z</time>
      </trkpt>
      <trkpt lat="31.79525000" lon="34.97516000">
        <ele>218.00000</ele>
        <time>2010-01-01T00:52:22Z</time>
      </trkpt>
      <trkpt lat="31.79542000" lon="34.97455000">
        <ele>215.00000</ele>
        <time>2010-01-01T00:52:44Z</time>
      </trkpt>
      <trkpt lat="31.79551000" lon="34.97396000">
        <ele>212.00000</ele>
        <time>2010-01-01T00:53:04Z</time>
      </trkpt>
      <trkpt lat="31.79557000" lon="34.97315000">
        <ele>213.00000</ele>
        <time>2010-01-01T00:53:32Z</time>
      </trkpt>
      <trkpt lat="31.79559000" lon="34.97271000">
        <ele>216.00000</ele>
        <time>2010-01-01T00:53:47Z</time>
      </trkpt>
      <trkpt lat="31.79566000" lon="34.97240000">
        <ele>218.00000</ele>
        <time>2010-01-01T00:53:58Z</time>
      </trkpt>
      <trkpt lat="31.79570000" lon="34.97228000">
        <ele>218.00000</ele>
        <time>2010-01-01T00:54:02Z</time>
      </trkpt>
      <trkpt lat="31.79584000" lon="34.97206000">
        <ele>217.00000</ele>
        <time>2010-01-01T00:54:11Z</time>
      </trkpt>
      <trkpt lat="31.79594000" lon="34.97185000">
        <ele>217.00000</ele>
        <time>2010-01-01T00:54:20Z</time>
      </trkpt>
      <trkpt lat="31.79604000" lon="34.97153000">
        <ele>216.00000</ele>
        <time>2010-01-01T00:54:31Z</time>
      </trkpt>
      <trkpt lat="31.79601000" lon="34.97122000">
        <ele>216.00000</ele>
        <time>2010-01-01T00:54:42Z</time>
      </trkpt>
      <trkpt lat="31.79596000" lon="34.97106000">
        <ele>217.00000</ele>
        <time>2010-01-01T00:54:48Z</time>
      </trkpt>
      <trkpt lat="31.79579000" lon="34.97082000">
        <ele>218.00000</ele>
        <time>2010-01-01T00:54:58Z</time>
      </trkpt>
      <trkpt lat="31.79543000" lon="34.97038000">
        <ele>222.00000</ele>
        <time>2010-01-01T00:55:19Z</time>
      </trkpt>
      <trkpt lat="31.79531000" lon="34.97013000">
        <ele>222.00000</ele>
        <time>2010-01-01T00:55:29Z</time>
      </trkpt>
      <trkpt lat="31.79518000" lon="34.96997000">
        <ele>223.00000</ele>
        <time>2010-01-01T00:55:36Z</time>
      </trkpt>
      <trkpt lat="31.79505000" lon="34.96985000">
        <ele>225.00000</ele>
        <time>2010-01-01T00:55:43Z</time>
      </trkpt>
      <trkpt lat="31.79479000" lon="34.96972000">
        <ele>228.00000</ele>
        <time>2010-01-01T00:55:54Z</time>
      </trkpt>
      <trkpt lat="31.79454000" lon="34.96970000">
        <ele>232.00000</ele>
        <time>2010-01-01T00:56:04Z</time>
      </trkpt>
      <trkpt lat="31.79440000" lon="34.96966000">
        <ele>235.00000</ele>
        <time>2010-01-01T00:56:10Z</time>
      </trkpt>
      <trkpt lat="31.79430000" lon="34.96959000">
        <ele>236.00000</ele>
        <time>2010-01-01T00:56:15Z</time>
      </trkpt>
      <trkpt lat="31.79422000" lon="34.96947000">
        <ele>236.00000</ele>
        <time>2010-01-01T00:56:20Z</time>
      </trkpt>
      <trkpt lat="31.79416000" lon="34.96935000">
        <ele>237.00000</ele>
        <time>2010-01-01T00:56:25Z</time>
      </trkpt>
      <trkpt lat="31.79414000" lon="34.96921000">
        <ele>237.00000</ele>
        <time>2010-01-01T00:56:29Z</time>
      </trkpt>
      <trkpt lat="31.79424000" lon="34.96831000">
        <ele>241.00000</ele>
        <time>2010-01-01T00:57:00Z</time>
      </trkpt>
      <trkpt lat="31.79424000" lon="34.96785000">
        <ele>241.00000</ele>
        <time>2010-01-01T00:57:16Z</time>
      </trkpt>
      <trkpt lat="31.79427000" lon="34.96753000">
        <ele>239.00000</ele>
        <time>2010-01-01T00:57:27Z</time>
      </trkpt>
      <trkpt lat="31.79425000" lon="34.96708000">
        <ele>242.00000</ele>
        <time>2010-01-01T00:57:42Z</time>
      </trkpt>
      <trkpt lat="31.79426000" lon="34.96695000">
        <ele>243.00000</ele>
        <time>2010-01-01T00:57:47Z</time>
      </trkpt>
      <trkpt lat="31.79430000" lon="34.96676000">
        <ele>241.00000</ele>
        <time>2010-01-01T00:57:53Z</time>
      </trkpt>
      <trkpt lat="31.79448000" lon="34.96645000">
        <ele>238.00000</ele>
        <time>2010-01-01T00:58:06Z</time>
      </trkpt>
      <trkpt lat="31.79494000" lon="34.96544000">
        <ele>225.00000</ele>
        <time>2010-01-01T00:58:45Z</time>
      </trkpt>
      <trkpt lat="31.79508000" lon="34.96525000">
        <ele>223.00000</ele>
        <time>2010-01-01T00:58:54Z</time>
      </trkpt>
      <trkpt lat="31.79526000" lon="34.96485000">
        <ele>221.00000</ele>
        <time>2010-01-01T00:59:09Z</time>
      </trkpt>
      <trkpt lat="31.79520000" lon="34.96484000">
        <ele>221.00000</ele>
        <time>2010-01-01T00:59:11Z</time>
      </trkpt>
      <trkpt lat="31.79514000" lon="34.96479000">
        <ele>221.00000</ele>
        <time>2010-01-01T00:59:14Z</time>
      </trkpt>
      <trkpt lat="31.79507000" lon="34.96477000">
        <ele>222.00000</ele>
        <time>2010-01-01T00:59:17Z</time>
      </trkpt>
      <trkpt lat="31.79496000" lon="34.96478000">
        <ele>222.00000</ele>
        <time>2010-01-01T00:59:22Z</time>
      </trkpt>
      <trkpt lat="31.79473000" lon="34.96488000">
        <ele>225.00000</ele>
        <time>2010-01-01T00:59:32Z</time>
      </trkpt>
      <trkpt lat="31.79464000" lon="34.96495000">
        <ele>224.00000</ele>
        <time>2010-01-01T00:59:36Z</time>
      </trkpt>
      <trkpt lat="31.79456000" lon="34.96505000">
        <ele>225.00000</ele>
        <time>2010-01-01T00:59:41Z</time>
      </trkpt>
      <trkpt lat="31.79440000" lon="34.96538000">
        <ele>228.00000</ele>
        <time>2010-01-01T00:59:53Z</time>
      </trkpt>
      <trkpt lat="31.79429000" lon="34.96554000">
        <ele>229.00000</ele>
        <time>2010-01-01T01:00:00Z</time>
      </trkpt>
      <trkpt lat="31.79420000" lon="34.96562000">
        <ele>231.00000</ele>
        <time>2010-01-01T01:00:05Z</time>
      </trkpt>
      <trkpt lat="31.79393000" lon="34.96572000">
        <ele>231.00000</ele>
        <time>2010-01-01T01:00:16Z</time>
      </trkpt>
      <trkpt lat="31.79384000" lon="34.96580000">
        <ele>232.00000</ele>
        <time>2010-01-01T01:00:21Z</time>
      </trkpt>
      <trkpt lat="31.79377000" lon="34.96589000">
        <ele>232.00000</ele>
        <time>2010-01-01T01:00:25Z</time>
      </trkpt>
      <trkpt lat="31.79372000" lon="34.96600000">
        <ele>234.00000</ele>
        <time>2010-01-01T01:00:29Z</time>
      </trkpt>
      <trkpt lat="31.79369000" lon="34.96608000">
        <ele>235.00000</ele>
        <time>2010-01-01T01:00:32Z</time>
      </trkpt>
      <trkpt lat="31.79365000" lon="34.96638000">
        <ele>240.00000</ele>
        <time>2010-01-01T01:00:43Z</time>
      </trkpt>
      <trkpt lat="31.79355000" lon="34.96660000">
        <ele>243.00000</ele>
        <time>2010-01-01T01:00:51Z</time>
      </trkpt>
      <trkpt lat="31.79352000" lon="34.96672000">
        <ele>245.00000</ele>
        <time>2010-01-01T01:00:55Z</time>
      </trkpt>
      <trkpt lat="31.79347000" lon="34.96683000">
        <ele>247.00000</ele>
        <time>2010-01-01T01:00:59Z</time>
      </trkpt>
      <trkpt lat="31.79333000" lon="34.96701000">
        <ele>249.00000</ele>
        <time>2010-01-01T01:01:08Z</time>
      </trkpt>
      <trkpt lat="31.79327000" lon="34.96708000">
        <ele>250.00000</ele>
        <time>2010-01-01T01:01:11Z</time>
      </trkpt>
      <trkpt lat="31.79270000" lon="34.96744000">
        <ele>254.00000</ele>
        <time>2010-01-01T01:01:37Z</time>
      </trkpt>
      <trkpt lat="31.79260000" lon="34.96755000">
        <ele>255.00000</ele>
        <time>2010-01-01T01:01:43Z</time>
      </trkpt>
      <trkpt lat="31.79254000" lon="34.96771000">
        <ele>258.00000</ele>
        <time>2010-01-01T01:01:49Z</time>
      </trkpt>
      <trkpt lat="31.79253000" lon="34.96796000">
        <ele>262.00000</ele>
        <time>2010-01-01T01:01:57Z</time>
      </trkpt>
      <trkpt lat="31.79249000" lon="34.96813000">
        <ele>263.00000</ele>
        <time>2010-01-01T01:02:03Z</time>
      </trkpt>
      <trkpt lat="31.79243000" lon="34.96837000">
        <ele>265.00000</ele>
        <time>2010-01-01T01:02:12Z</time>
      </trkpt>
      <trkpt lat="31.79235000" lon="34.96857000">
        <ele>267.00000</ele>
        <time>2010-01-01T01:02:19Z</time>
      </trkpt>
      <trkpt lat="31.79222000" lon="34.96850000">
        <ele>266.00000</ele>
        <time>2010-01-01T01:02:25Z</time>
      </trkpt>
      <trkpt lat="31.79204000" lon="34.96855000">
        <ele>267.00000</ele>
        <time>2010-01-01T01:02:32Z</time>
      </trkpt>
      <trkpt lat="31.79186000" lon="34.96858000">
        <ele>267.00000</ele>
        <time>2010-01-01T01:02:39Z</time>
      </trkpt>
      <trkpt lat="31.79133000" lon="34.96848000">
        <ele>268.00000</ele>
        <time>2010-01-01T01:03:01Z</time>
      </trkpt>
      <trkpt lat="31.79100000" lon="34.96847000">
        <ele>269.00000</ele>
        <time>2010-01-01T01:03:14Z</time>
      </trkpt>
      <trkpt lat="31.79086000" lon="34.96844000">
        <ele>268.00000</ele>
        <time>2010-01-01T01:03:20Z</time>
      </trkpt>
      <trkpt lat="31.79072000" lon="34.96838000">
        <ele>267.00000</ele>
        <time>2010-01-01T01:03:26Z</time>
      </trkpt>
      <trkpt lat="31.79048000" lon="34.96831000">
        <ele>267.00000</ele>
        <time>2010-01-01T01:03:36Z</time>
      </trkpt>
      <trkpt lat="31.79033000" lon="34.96830000">
        <ele>268.00000</ele>
        <time>2010-01-01T01:03:42Z</time>
      </trkpt>
      <trkpt lat="31.79001000" lon="34.96824000">
        <ele>270.00000</ele>
        <time>2010-01-01T01:03:55Z</time>
      </trkpt>
      <trkpt lat="31.78982000" lon="34.96812000">
        <ele>271.00000</ele>
        <time>2010-01-01T01:04:03Z</time>
      </trkpt>
      <trkpt lat="31.78952000" lon="34.96798000">
        <ele>273.00000</ele>
        <time>2010-01-01T01:04:16Z</time>
      </trkpt>
      <trkpt lat="31.78952000" lon="34.96797000">
        <ele>273.00000</ele>
        <time>2010-01-01T01:04:17Z</time>
      </trkpt>
      <trkpt lat="31.78930000" lon="34.96784000">
        <ele>274.00000</ele>
        <time>2010-01-01T01:04:26Z</time>
      </trkpt>
      <trkpt lat="31.78923000" lon="34.96774000">
        <ele>274.00000</ele>
        <time>2010-01-01T01:04:31Z</time>
      </trkpt>
      <trkpt lat="31.78921000" lon="34.96761000">
        <ele>272.00000</ele>
        <time>2010-01-01T01:04:35Z</time>
      </trkpt>
      <trkpt lat="31.78918000" lon="34.96753000">
        <ele>271.00000</ele>
        <time>2010-01-01T01:04:38Z</time>
      </trkpt>
      <trkpt lat="31.78903000" lon="34.96735000">
        <ele>270.00000</ele>
        <time>2010-01-01T01:04:47Z</time>
      </trkpt>
      <trkpt lat="31.78896000" lon="34.96721000">
        <ele>270.00000</ele>
        <time>2010-01-01T01:04:52Z</time>
      </trkpt>
      <trkpt lat="31.78894000" lon="34.96709000">
        <ele>268.00000</ele>
        <time>2010-01-01T01:04:57Z</time>
      </trkpt>
      <trkpt lat="31.78896000" lon="34.96696000">
        <ele>266.00000</ele>
        <time>2010-01-01T01:05:01Z</time>
      </trkpt>
      <trkpt lat="31.78906000" lon="34.96678000">
        <ele>261.00000</ele>
        <time>2010-01-01T01:05:08Z</time>
      </trkpt>
      <trkpt lat="31.78911000" lon="34.96665000">
        <ele>258.00000</ele>
        <time>2010-01-01T01:05:13Z</time>
      </trkpt>
      <trkpt lat="31.78913000" lon="34.96656000">
        <ele>258.00000</ele>
        <time>2010-01-01T01:05:16Z</time>
      </trkpt>
      <trkpt lat="31.78912000" lon="34.96645000">
        <ele>258.00000</ele>
        <time>2010-01-01T01:05:20Z</time>
      </trkpt>
      <trkpt lat="31.78909000" lon="34.96637000">
        <ele>258.00000</ele>
        <time>2010-01-01T01:05:23Z</time>
      </trkpt>
      <trkpt lat="31.78899000" lon="34.96622000">
        <ele>259.00000</ele>
        <time>2010-01-01T01:05:30Z</time>
      </trkpt>
      <trkpt lat="31.78892000" lon="34.96616000">
        <ele>260.00000</ele>
        <time>2010-01-01T01:05:33Z</time>
      </trkpt>
      <trkpt lat="31.78867000" lon="34.96601000">
        <ele>262.00000</ele>
        <time>2010-01-01T01:05:44Z</time>
      </trkpt>
      <trkpt lat="31.78828000" lon="34.96572000">
        <ele>267.00000</ele>
        <time>2010-01-01T01:06:03Z</time>
      </trkpt>
      <trkpt lat="31.78771000" lon="34.96504000">
        <ele>264.00000</ele>
        <time>2010-01-01T01:06:35Z</time>
      </trkpt>
      <trkpt lat="31.78760000" lon="34.96493000">
        <ele>265.00000</ele>
        <time>2010-01-01T01:06:41Z</time>
      </trkpt>
      <trkpt lat="31.78807000" lon="34.96472000">
        <ele>260.00000</ele>
        <time>2010-01-01T01:07:01Z</time>
      </trkpt>
      <trkpt lat="31.78864000" lon="34.96438000">
        <ele>257.00000</ele>
        <time>2010-01-01T01:07:27Z</time>
      </trkpt>
      <trkpt lat="31.78884000" lon="34.96415000">
        <ele>256.00000</ele>
        <time>2010-01-01T01:07:38Z</time>
      </trkpt>
      <trkpt lat="31.78928000" lon="34.96364000">
        <ele>257.00000</ele>
        <time>2010-01-01T01:08:03Z</time>
      </trkpt>
      <trkpt lat="31.79024000" lon="34.96281000">
        <ele>253.00000</ele>
        <time>2010-01-01T01:08:50Z</time>
      </trkpt>
      <trkpt lat="31.79065000" lon="34.96227000">
        <ele>247.00000</ele>
        <time>2010-01-01T01:09:15Z</time>
      </trkpt>
      <trkpt lat="31.79095000" lon="34.96199000">
        <ele>245.00000</ele>
        <time>2010-01-01T01:09:30Z</time>
      </trkpt>
      <trkpt lat="31.79127000" lon="34.96165000">
        <ele>242.00000</ele>
        <time>2010-01-01T01:09:48Z</time>
      </trkpt>
      <trkpt lat="31.79153000" lon="34.96147000">
        <ele>238.00000</ele>
        <time>2010-01-01T01:10:00Z</time>
      </trkpt>
      <trkpt lat="31.79158000" lon="34.96140000">
        <ele>237.00000</ele>
        <time>2010-01-01T01:10:03Z</time>
      </trkpt>
      <trkpt lat="31.79158000" lon="34.96132000">
        <ele>236.00000</ele>
        <time>2010-01-01T01:10:06Z</time>
      </trkpt>
      <trkpt lat="31.79154000" lon="34.96112000">
        <ele>236.00000</ele>
        <time>2010-01-01T01:10:13Z</time>
      </trkpt>
      <trkpt lat="31.79098000" lon="34.96085000">
        <ele>239.00000</ele>
        <time>2010-01-01T01:10:37Z</time>
      </trkpt>
      <trkpt lat="31.79087000" lon="34.96083000">
        <ele>240.00000</ele>
        <time>2010-01-01T01:10:41Z</time>
      </trkpt>
      <trkpt lat="31.79073000" lon="34.96083000">
        <ele>241.00000</ele>
        <time>2010-01-01T01:10:47Z</time>
      </trkpt>
      <trkpt lat="31.79048000" lon="34.96089000">
        <ele>243.00000</ele>
        <time>2010-01-01T01:10:57Z</time>
      </trkpt>
      <trkpt lat="31.79007000" lon="34.96090000">
        <ele>243.00000</ele>
        <time>2010-01-01T01:11:13Z</time>
      </trkpt>
      <trkpt lat="31.78959000" lon="34.96097000">
        <ele>241.00000</ele>
        <time>2010-01-01T01:11:33Z</time>
      </trkpt>
      <trkpt lat="31.78937000" lon="34.96097000">
        <ele>241.00000</ele>
        <time>2010-01-01T01:11:42Z</time>
      </trkpt>
      <trkpt lat="31.78902000" lon="34.96092000">
        <ele>241.00000</ele>
        <time>2010-01-01T01:11:56Z</time>
      </trkpt>
      <trkpt lat="31.78887000" lon="34.96093000">
        <ele>242.00000</ele>
        <time>2010-01-01T01:12:02Z</time>
      </trkpt>
      <trkpt lat="31.78869000" lon="34.96097000">
        <ele>243.00000</ele>
        <time>2010-01-01T01:12:09Z</time>
      </trkpt>
      <trkpt lat="31.78835000" lon="34.96109000">
        <ele>245.00000</ele>
        <time>2010-01-01T01:12:23Z</time>
      </trkpt>
      <trkpt lat="31.78810000" lon="34.96121000">
        <ele>245.00000</ele>
        <time>2010-01-01T01:12:34Z</time>
      </trkpt>
      <trkpt lat="31.78787000" lon="34.96135000">
        <ele>247.00000</ele>
        <time>2010-01-01T01:12:44Z</time>
      </trkpt>
      <trkpt lat="31.78726000" lon="34.96135000">
        <ele>251.00000</ele>
        <time>2010-01-01T01:13:09Z</time>
      </trkpt>
      <trkpt lat="31.78698000" lon="34.96139000">
        <ele>250.00000</ele>
        <time>2010-01-01T01:13:20Z</time>
      </trkpt>
      <trkpt lat="31.78651000" lon="34.96149000">
        <ele>252.00000</ele>
        <time>2010-01-01T01:13:39Z</time>
      </trkpt>
      <trkpt lat="31.78612000" lon="34.96165000">
        <ele>254.00000</ele>
        <time>2010-01-01T01:13:56Z</time>
      </trkpt>
      <trkpt lat="31.78592000" lon="34.96169000">
        <ele>254.00000</ele>
        <time>2010-01-01T01:14:04Z</time>
      </trkpt>
      <trkpt lat="31.78585000" lon="34.96160000">
        <ele>253.00000</ele>
        <time>2010-01-01T01:14:08Z</time>
      </trkpt>
      <trkpt lat="31.78578000" lon="34.96137000">
        <ele>253.00000</ele>
        <time>2010-01-01T01:14:16Z</time>
      </trkpt>
      <trkpt lat="31.78591000" lon="34.96073000">
        <ele>248.00000</ele>
        <time>2010-01-01T01:14:39Z</time>
      </trkpt>
      <trkpt lat="31.78591000" lon="34.96065000">
        <ele>248.00000</ele>
        <time>2010-01-01T01:14:42Z</time>
      </trkpt>
      <trkpt lat="31.78581000" lon="34.96021000">
        <ele>247.00000</ele>
        <time>2010-01-01T01:14:57Z</time>
      </trkpt>
      <trkpt lat="31.78581000" lon="34.96020000">
        <ele>247.00000</ele>
        <time>2010-01-01T01:14:57Z</time>
      </trkpt>
      <trkpt lat="31.78570000" lon="34.95986000">
        <ele>251.00000</ele>
        <time>2010-01-01T01:15:10Z</time>
      </trkpt>
      <trkpt lat="31.78569000" lon="34.95970000">
        <ele>252.00000</ele>
        <time>2010-01-01T01:15:15Z</time>
      </trkpt>
      <trkpt lat="31.78572000" lon="34.95959000">
        <ele>254.00000</ele>
        <time>2010-01-01T01:15:19Z</time>
      </trkpt>
      <trkpt lat="31.78578000" lon="34.95951000">
        <ele>254.00000</ele>
        <time>2010-01-01T01:15:23Z</time>
      </trkpt>
      <trkpt lat="31.78586000" lon="34.95943000">
        <ele>254.00000</ele>
        <time>2010-01-01T01:15:27Z</time>
      </trkpt>
      <trkpt lat="31.78618000" lon="34.95922000">
        <ele>255.00000</ele>
        <time>2010-01-01T01:15:42Z</time>
      </trkpt>
      <trkpt lat="31.78674000" lon="34.95873000">
        <ele>258.00000</ele>
        <time>2010-01-01T01:16:10Z</time>
      </trkpt>
      <trkpt lat="31.78713000" lon="34.95844000">
        <ele>259.00000</ele>
        <time>2010-01-01T01:16:28Z</time>
      </trkpt>
      <trkpt lat="31.78704000" lon="34.95835000">
        <ele>261.00000</ele>
        <time>2010-01-01T01:16:33Z</time>
      </trkpt>
      <trkpt lat="31.78694000" lon="34.95833000">
        <ele>263.00000</ele>
        <time>2010-01-01T01:16:37Z</time>
      </trkpt>
      <trkpt lat="31.78660000" lon="34.95837000">
        <ele>266.00000</ele>
        <time>2010-01-01T01:16:51Z</time>
      </trkpt>
      <trkpt lat="31.78609000" lon="34.95850000">
        <ele>268.00000</ele>
        <time>2010-01-01T01:17:11Z</time>
      </trkpt>
      <trkpt lat="31.78590000" lon="34.95850000">
        <ele>271.00000</ele>
        <time>2010-01-01T01:17:19Z</time>
      </trkpt>
      <trkpt lat="31.78584000" lon="34.95848000">
        <ele>273.00000</ele>
        <time>2010-01-01T01:17:21Z</time>
      </trkpt>
      <trkpt lat="31.78575000" lon="34.95842000">
        <ele>275.00000</ele>
        <time>2010-01-01T01:17:26Z</time>
      </trkpt>
      <trkpt lat="31.78570000" lon="34.95836000">
        <ele>277.00000</ele>
        <time>2010-01-01T01:17:28Z</time>
      </trkpt>
      <trkpt lat="31.78569000" lon="34.95827000">
        <ele>279.00000</ele>
        <time>2010-01-01T01:17:32Z</time>
      </trkpt>
      <trkpt lat="31.78575000" lon="34.95816000">
        <ele>280.00000</ele>
        <time>2010-01-01T01:17:36Z</time>
      </trkpt>
      <trkpt lat="31.78601000" lon="34.95796000">
        <ele>279.00000</ele>
        <time>2010-01-01T01:17:48Z</time>
      </trkpt>
      <trkpt lat="31.78623000" lon="34.95788000">
        <ele>278.00000</ele>
        <time>2010-01-01T01:17:58Z</time>
      </trkpt>
      <trkpt lat="31.78647000" lon="34.95783000">
        <ele>275.00000</ele>
        <time>2010-01-01T01:18:07Z</time>
      </trkpt>
      <trkpt lat="31.78663000" lon="34.95774000">
        <ele>275.00000</ele>
        <time>2010-01-01T01:18:15Z</time>
      </trkpt>
      <trkpt lat="31.78670000" lon="34.95768000">
        <ele>276.00000</ele>
        <time>2010-01-01T01:18:18Z</time>
      </trkpt>
      <trkpt lat="31.78674000" lon="34.95759000">
        <ele>277.00000</ele>
        <time>2010-01-01T01:18:21Z</time>
      </trkpt>
      <trkpt lat="31.78673000" lon="34.95745000">
        <ele>278.00000</ele>
        <time>2010-01-01T01:18:26Z</time>
      </trkpt>
      <trkpt lat="31.78668000" lon="34.95731000">
        <ele>280.00000</ele>
        <time>2010-01-01T01:18:31Z</time>
      </trkpt>
      <trkpt lat="31.78667000" lon="34.95723000">
        <ele>281.00000</ele>
        <time>2010-01-01T01:18:34Z</time>
      </trkpt>
      <trkpt lat="31.78669000" lon="34.95714000">
        <ele>282.00000</ele>
        <time>2010-01-01T01:18:37Z</time>
      </trkpt>
      <trkpt lat="31.78673000" lon="34.95709000">
        <ele>282.00000</ele>
        <time>2010-01-01T01:18:40Z</time>
      </trkpt>
      <trkpt lat="31.78688000" lon="34.95700000">
        <ele>280.00000</ele>
        <time>2010-01-01T01:18:46Z</time>
      </trkpt>
      <trkpt lat="31.78736000" lon="34.95686000">
        <ele>278.00000</ele>
        <time>2010-01-01T01:19:06Z</time>
      </trkpt>
      <trkpt lat="31.78751000" lon="34.95676000">
        <ele>278.00000</ele>
        <time>2010-01-01T01:19:13Z</time>
      </trkpt>
      <trkpt lat="31.78753000" lon="34.95673000">
        <ele>278.00000</ele>
        <time>2010-01-01T01:19:14Z</time>
      </trkpt>
      <trkpt lat="31.78759000" lon="34.95666000">
        <ele>279.00000</ele>
        <time>2010-01-01T01:19:18Z</time>
      </trkpt>
      <trkpt lat="31.78768000" lon="34.95649000">
        <ele>279.00000</ele>
        <time>2010-01-01T01:19:25Z</time>
      </trkpt>
      <trkpt lat="31.78777000" lon="34.95626000">
        <ele>281.00000</ele>
        <time>2010-01-01T01:19:33Z</time>
      </trkpt>
      <trkpt lat="31.78788000" lon="34.95592000">
        <ele>285.00000</ele>
        <time>2010-01-01T01:19:46Z</time>
      </trkpt>
      <trkpt lat="31.78792000" lon="34.95584000">
        <ele>285.00000</ele>
        <time>2010-01-01T01:19:49Z</time>
      </trkpt>
      <trkpt lat="31.78803000" lon="34.95570000">
        <ele>285.00000</ele>
        <time>2010-01-01T01:19:55Z</time>
      </trkpt>
      <trkpt lat="31.78822000" lon="34.95547000">
        <ele>283.00000</ele>
        <time>2010-01-01T01:20:06Z</time>
      </trkpt>
      <trkpt lat="31.78824000" lon="34.95540000">
        <ele>283.00000</ele>
        <time>2010-01-01T01:20:09Z</time>
      </trkpt>
      <trkpt lat="31.78821000" lon="34.95530000">
        <ele>284.00000</ele>
        <time>2010-01-01T01:20:12Z</time>
      </trkpt>
      <trkpt lat="31.78816000" lon="34.95540000">
        <ele>284.00000</ele>
        <time>2010-01-01T01:20:16Z</time>
      </trkpt>
      <trkpt lat="31.78809000" lon="34.95549000">
        <ele>285.00000</ele>
        <time>2010-01-01T01:20:20Z</time>
      </trkpt>
      <trkpt lat="31.78790000" lon="34.95564000">
        <ele>287.00000</ele>
        <time>2010-01-01T01:20:30Z</time>
      </trkpt>
      <trkpt lat="31.78769000" lon="34.95584000">
        <ele>289.00000</ele>
        <time>2010-01-01T01:20:40Z</time>
      </trkpt>
      <trkpt lat="31.78722000" lon="34.95613000">
        <ele>290.00000</ele>
        <time>2010-01-01T01:21:02Z</time>
      </trkpt>
      <trkpt lat="31.78677000" lon="34.95634000">
        <ele>293.00000</ele>
        <time>2010-01-01T01:21:21Z</time>
      </trkpt>
      <trkpt lat="31.78665000" lon="34.95641000">
        <ele>293.00000</ele>
        <time>2010-01-01T01:21:26Z</time>
      </trkpt>
      <trkpt lat="31.78651000" lon="34.95652000">
        <ele>293.00000</ele>
        <time>2010-01-01T01:21:33Z</time>
      </trkpt>
      <trkpt lat="31.78618000" lon="34.95688000">
        <ele>293.00000</ele>
        <time>2010-01-01T01:21:51Z</time>
      </trkpt>
      <trkpt lat="31.78582000" lon="34.95716000">
        <ele>294.00000</ele>
        <time>2010-01-01T01:22:08Z</time>
      </trkpt>
      <trkpt lat="31.78534000" lon="34.95762000">
        <ele>290.00000</ele>
        <time>2010-01-01T01:22:33Z</time>
      </trkpt>
      <trkpt lat="31.78500000" lon="34.95792000">
        <ele>287.00000</ele>
        <time>2010-01-01T01:22:50Z</time>
      </trkpt>
      <trkpt lat="31.78462000" lon="34.95828000">
        <ele>287.00000</ele>
        <time>2010-01-01T01:23:10Z</time>
      </trkpt>
      <trkpt lat="31.78400000" lon="34.95889000">
        <ele>286.00000</ele>
        <time>2010-01-01T01:23:42Z</time>
      </trkpt>
      <trkpt lat="31.78345000" lon="34.95921000">
        <ele>295.00000</ele>
        <time>2010-01-01T01:24:07Z</time>
      </trkpt>
      <trkpt lat="31.78296000" lon="34.95944000">
        <ele>296.00000</ele>
        <time>2010-01-01T01:24:28Z</time>
      </trkpt>
      <trkpt lat="31.78268000" lon="34.95971000">
        <ele>301.00000</ele>
        <time>2010-01-01T01:24:42Z</time>
      </trkpt>
      <trkpt lat="31.78261000" lon="34.95985000">
        <ele>304.00000</ele>
        <time>2010-01-01T01:24:48Z</time>
      </trkpt>
      <trkpt lat="31.78265000" lon="34.95996000">
        <ele>303.00000</ele>
        <time>2010-01-01T01:24:52Z</time>
      </trkpt>
      <trkpt lat="31.78276000" lon="34.96015000">
        <ele>300.00000</ele>
        <time>2010-01-01T01:25:00Z</time>
      </trkpt>
      <trkpt lat="31.78276000" lon="34.96026000">
        <ele>300.00000</ele>
        <time>2010-01-01T01:25:03Z</time>
      </trkpt>
      <trkpt lat="31.78274000" lon="34.96039000">
        <ele>300.00000</ele>
        <time>2010-01-01T01:25:08Z</time>
      </trkpt>
      <trkpt lat="31.78268000" lon="34.96051000">
        <ele>302.00000</ele>
        <time>2010-01-01T01:25:13Z</time>
      </trkpt>
      <trkpt lat="31.78254000" lon="34.96125000">
        <ele>301.00000</ele>
        <time>2010-01-01T01:25:38Z</time>
      </trkpt>
      <trkpt lat="31.78228000" lon="34.96197000">
        <ele>301.00000</ele>
        <time>2010-01-01T01:26:05Z</time>
      </trkpt>
      <trkpt lat="31.78194000" lon="34.96276000">
        <ele>299.00000</ele>
        <time>2010-01-01T01:26:35Z</time>
      </trkpt>
      <trkpt lat="31.78175000" lon="34.96316000">
        <ele>298.00000</ele>
        <time>2010-01-01T01:26:51Z</time>
      </trkpt>
      <trkpt lat="31.78161000" lon="34.96354000">
        <ele>299.00000</ele>
        <time>2010-01-01T01:27:05Z</time>
      </trkpt>
      <trkpt lat="31.78139000" lon="34.96394000">
        <ele>302.00000</ele>
        <time>2010-01-01T01:27:21Z</time>
      </trkpt>
      <trkpt lat="31.78110000" lon="34.96429000">
        <ele>306.00000</ele>
        <time>2010-01-01T01:27:38Z</time>
      </trkpt>
      <trkpt lat="31.78101000" lon="34.96442000">
        <ele>306.00000</ele>
        <time>2010-01-01T01:27:43Z</time>
      </trkpt>
      <trkpt lat="31.78096000" lon="34.96453000">
        <ele>307.00000</ele>
        <time>2010-01-01T01:27:48Z</time>
      </trkpt>
      <trkpt lat="31.78094000" lon="34.96464000">
        <ele>307.00000</ele>
        <time>2010-01-01T01:27:51Z</time>
      </trkpt>
      <trkpt lat="31.78080000" lon="34.96476000">
        <ele>308.00000</ele>
        <time>2010-01-01T01:27:58Z</time>
      </trkpt>
      <trkpt lat="31.78058000" lon="34.96490000">
        <ele>313.00000</ele>
        <time>2010-01-01T01:28:08Z</time>
      </trkpt>
      <trkpt lat="31.78047000" lon="34.96500000">
        <ele>315.00000</ele>
        <time>2010-01-01T01:28:14Z</time>
      </trkpt>
      <trkpt lat="31.78013000" lon="34.96539000">
        <ele>322.00000</ele>
        <time>2010-01-01T01:28:33Z</time>
      </trkpt>
      <trkpt lat="31.78005000" lon="34.96553000">
        <ele>323.00000</ele>
        <time>2010-01-01T01:28:39Z</time>
      </trkpt>
      <trkpt lat="31.77997000" lon="34.96572000">
        <ele>324.00000</ele>
        <time>2010-01-01T01:28:46Z</time>
      </trkpt>
      <trkpt lat="31.77968000" lon="34.96620000">
        <ele>327.00000</ele>
        <time>2010-01-01T01:29:06Z</time>
      </trkpt>
      <trkpt lat="31.77948000" lon="34.96657000">
        <ele>330.00000</ele>
        <time>2010-01-01T01:29:21Z</time>
      </trkpt>
      <trkpt lat="31.77942000" lon="34.96678000">
        <ele>332.00000</ele>
        <time>2010-01-01T01:29:28Z</time>
      </trkpt>
      <trkpt lat="31.77934000" lon="34.96710000">
        <ele>333.00000</ele>
        <time>2010-01-01T01:29:40Z</time>
      </trkpt>
      <trkpt lat="31.77929000" lon="34.96745000">
        <ele>336.00000</ele>
        <time>2010-01-01T01:29:52Z</time>
      </trkpt>
      <trkpt lat="31.77923000" lon="34.96767000">
        <ele>338.00000</ele>
        <time>2010-01-01T01:30:00Z</time>
      </trkpt>
      <trkpt lat="31.77922000" lon="34.96794000">
        <ele>340.00000</ele>
        <time>2010-01-01T01:30:09Z</time>
      </trkpt>
      <trkpt lat="31.77923000" lon="34.96833000">
        <ele>344.00000</ele>
        <time>2010-01-01T01:30:22Z</time>
      </trkpt>
      <trkpt lat="31.77914000" lon="34.96898000">
        <ele>348.00000</ele>
        <time>2010-01-01T01:30:45Z</time>
      </trkpt>
      <trkpt lat="31.77909000" lon="34.96919000">
        <ele>350.00000</ele>
        <time>2010-01-01T01:30:52Z</time>
      </trkpt>
      <trkpt lat="31.77901000" lon="34.96927000">
        <ele>350.00000</ele>
        <time>2010-01-01T01:30:56Z</time>
      </trkpt>
      <trkpt lat="31.77892000" lon="34.96921000">
        <ele>349.00000</ele>
        <time>2010-01-01T01:31:00Z</time>
      </trkpt>
      <trkpt lat="31.77889000" lon="34.96909000">
        <ele>348.00000</ele>
        <time>2010-01-01T01:31:05Z</time>
      </trkpt>
      <trkpt lat="31.77884000" lon="34.96872000">
        <ele>348.00000</ele>
        <time>2010-01-01T01:31:17Z</time>
      </trkpt>
      <trkpt lat="31.77855000" lon="34.96742000">
        <ele>353.00000</ele>
        <time>2010-01-01T01:32:03Z</time>
      </trkpt>
      <trkpt lat="31.77846000" lon="34.96690000">
        <ele>353.00000</ele>
        <time>2010-01-01T01:32:21Z</time>
      </trkpt>
      <trkpt lat="31.77843000" lon="34.96679000">
        <ele>352.00000</ele>
        <time>2010-01-01T01:32:25Z</time>
      </trkpt>
      <trkpt lat="31.77827000" lon="34.96657000">
        <ele>354.00000</ele>
        <time>2010-01-01T01:32:35Z</time>
      </trkpt>
      <trkpt lat="31.77814000" lon="34.96649000">
        <ele>353.00000</ele>
        <time>2010-01-01T01:32:41Z</time>
      </trkpt>
      <trkpt lat="31.77796000" lon="34.96653000">
        <ele>354.00000</ele>
        <time>2010-01-01T01:32:48Z</time>
      </trkpt>
      <trkpt lat="31.77747000" lon="34.96677000">
        <ele>359.00000</ele>
        <time>2010-01-01T01:33:09Z</time>
      </trkpt>
      <trkpt lat="31.77711000" lon="34.96687000">
        <ele>360.00000</ele>
        <time>2010-01-01T01:33:24Z</time>
      </trkpt>
      <trkpt lat="31.77702000" lon="34.96688000">
        <ele>360.00000</ele>
        <time>2010-01-01T01:33:28Z</time>
      </trkpt>
      <trkpt lat="31.77673000" lon="34.96686000">
        <ele>361.00000</ele>
        <time>2010-01-01T01:33:39Z</time>
      </trkpt>
      <trkpt lat="31.77672000" lon="34.96686000">
        <ele>361.00000</ele>
        <time>2010-01-01T01:33:40Z</time>
      </trkpt>
      <trkpt lat="31.77621000" lon="34.96675000">
        <ele>363.00000</ele>
        <time>2010-01-01T01:34:01Z</time>
      </trkpt>
      <trkpt lat="31.77608000" lon="34.96676000">
        <ele>364.00000</ele>
        <time>2010-01-01T01:34:06Z</time>
      </trkpt>
      <trkpt lat="31.77600000" lon="34.96680000">
        <ele>364.00000</ele>
        <time>2010-01-01T01:34:09Z</time>
      </trkpt>
      <trkpt lat="31.77590000" lon="34.96688000">
        <ele>365.00000</ele>
        <time>2010-01-01T01:34:14Z</time>
      </trkpt>
      <trkpt lat="31.77585000" lon="34.96695000">
        <ele>367.00000</ele>
        <time>2010-01-01T01:34:17Z</time>
      </trkpt>
      <trkpt lat="31.77580000" lon="34.96706000">
        <ele>366.00000</ele>
        <time>2010-01-01T01:34:22Z</time>
      </trkpt>
      <trkpt lat="31.77580000" lon="34.96714000">
        <ele>367.00000</ele>
        <time>2010-01-01T01:34:24Z</time>
      </trkpt>
      <trkpt lat="31.77581000" lon="34.96724000">
        <ele>367.00000</ele>
        <time>2010-01-01T01:34:28Z</time>
      </trkpt>
      <trkpt lat="31.77587000" lon="34.96738000">
        <ele>368.00000</ele>
        <time>2010-01-01T01:34:33Z</time>
      </trkpt>
      <trkpt lat="31.77594000" lon="34.96747000">
        <ele>369.00000</ele>
        <time>2010-01-01T01:34:37Z</time>
      </trkpt>
      <trkpt lat="31.77625000" lon="34.96779000">
        <ele>372.00000</ele>
        <time>2010-01-01T01:34:54Z</time>
      </trkpt>
      <trkpt lat="31.77657000" lon="34.96816000">
        <ele>376.00000</ele>
        <time>2010-01-01T01:35:12Z</time>
      </trkpt>
      <trkpt lat="31.77668000" lon="34.96832000">
        <ele>377.00000</ele>
        <time>2010-01-01T01:35:19Z</time>
      </trkpt>
      <trkpt lat="31.77680000" lon="34.96858000">
        <ele>375.00000</ele>
        <time>2010-01-01T01:35:29Z</time>
      </trkpt>
      <trkpt lat="31.77686000" lon="34.96881000">
        <ele>372.00000</ele>
        <time>2010-01-01T01:35:37Z</time>
      </trkpt>
      <trkpt lat="31.77688000" lon="34.96925000">
        <ele>372.00000</ele>
        <time>2010-01-01T01:35:52Z</time>
      </trkpt>
      <trkpt lat="31.77698000" lon="34.97004000">
        <ele>373.00000</ele>
        <time>2010-01-01T01:36:19Z</time>
      </trkpt>
      <trkpt lat="31.77697000" lon="34.97025000">
        <ele>371.00000</ele>
        <time>2010-01-01T01:36:26Z</time>
      </trkpt>
      <trkpt lat="31.77691000" lon="34.97040000">
        <ele>372.00000</ele>
        <time>2010-01-01T01:36:32Z</time>
      </trkpt>
      <trkpt lat="31.77679000" lon="34.97053000">
        <ele>372.00000</ele>
        <time>2010-01-01T01:36:38Z</time>
      </trkpt>
      <trkpt lat="31.77671000" lon="34.97058000">
        <ele>372.00000</ele>
        <time>2010-01-01T01:36:42Z</time>
      </trkpt>
      <trkpt lat="31.77639000" lon="34.97069000">
        <ele>375.00000</ele>
        <time>2010-01-01T01:36:55Z</time>
      </trkpt>
      <trkpt lat="31.77617000" lon="34.97074000">
        <ele>377.00000</ele>
        <time>2010-01-01T01:37:04Z</time>
      </trkpt>
      <trkpt lat="31.77579000" lon="34.97079000">
        <ele>376.00000</ele>
        <time>2010-01-01T01:37:20Z</time>
      </trkpt>
      <trkpt lat="31.77564000" lon="34.97086000">
        <ele>375.00000</ele>
        <time>2010-01-01T01:37:26Z</time>
      </trkpt>
      <trkpt lat="31.77558000" lon="34.97091000">
        <ele>375.00000</ele>
        <time>2010-01-01T01:37:29Z</time>
      </trkpt>
      <trkpt lat="31.77552000" lon="34.97103000">
        <ele>376.00000</ele>
        <time>2010-01-01T01:37:34Z</time>
      </trkpt>
      <trkpt lat="31.77546000" lon="34.97129000">
        <ele>378.00000</ele>
        <time>2010-01-01T01:37:43Z</time>
      </trkpt>
      <trkpt lat="31.77547000" lon="34.97211000">
        <ele>380.00000</ele>
        <time>2010-01-01T01:38:11Z</time>
      </trkpt>
      <trkpt lat="31.77546000" lon="34.97228000">
        <ele>380.00000</ele>
        <time>2010-01-01T01:38:17Z</time>
      </trkpt>
      <trkpt lat="31.77542000" lon="34.97246000">
        <ele>379.00000</ele>
        <time>2010-01-01T01:38:23Z</time>
      </trkpt>
      <trkpt lat="31.77521000" lon="34.97311000">
        <ele>380.00000</ele>
        <time>2010-01-01T01:38:47Z</time>
      </trkpt>
      <trkpt lat="31.77520000" lon="34.97316000">
        <ele>380.00000</ele>
        <time>2010-01-01T01:38:48Z</time>
      </trkpt>
      <trkpt lat="31.77519000" lon="34.97325000">
        <ele>380.00000</ele>
        <time>2010-01-01T01:38:51Z</time>
      </trkpt>
      <trkpt lat="31.77519000" lon="34.97340000">
        <ele>381.00000</ele>
        <time>2010-01-01T01:38:57Z</time>
      </trkpt>
      <trkpt lat="31.77523000" lon="34.97356000">
        <ele>381.00000</ele>
        <time>2010-01-01T01:39:02Z</time>
      </trkpt>
      <trkpt lat="31.77529000" lon="34.97369000">
        <ele>381.00000</ele>
        <time>2010-01-01T01:39:07Z</time>
      </trkpt>
      <trkpt lat="31.77536000" lon="34.97379000">
        <ele>382.00000</ele>
        <time>2010-01-01T01:39:12Z</time>
      </trkpt>
      <trkpt lat="31.77566000" lon="34.97410000">
        <ele>382.00000</ele>
        <time>2010-01-01T01:39:28Z</time>
      </trkpt>
      <trkpt lat="31.77583000" lon="34.97432000">
        <ele>381.00000</ele>
        <time>2010-01-01T01:39:38Z</time>
      </trkpt>
      <trkpt lat="31.77590000" lon="34.97448000">
        <ele>382.00000</ele>
        <time>2010-01-01T01:39:44Z</time>
      </trkpt>
      <trkpt lat="31.77593000" lon="34.97468000">
        <ele>384.00000</ele>
        <time>2010-01-01T01:39:51Z</time>
      </trkpt>
      <trkpt lat="31.77584000" lon="34.97487000">
        <ele>384.00000</ele>
        <time>2010-01-01T01:39:58Z</time>
      </trkpt>
      <trkpt lat="31.77559000" lon="34.97548000">
        <ele>385.00000</ele>
        <time>2010-01-01T01:40:21Z</time>
      </trkpt>
      <trkpt lat="31.77554000" lon="34.97566000">
        <ele>386.00000</ele>
        <time>2010-01-01T01:40:28Z</time>
      </trkpt>
      <trkpt lat="31.77552000" lon="34.97583000">
        <ele>387.00000</ele>
        <time>2010-01-01T01:40:34Z</time>
      </trkpt>
      <trkpt lat="31.77554000" lon="34.97596000">
        <ele>387.00000</ele>
        <time>2010-01-01T01:40:38Z</time>
      </trkpt>
      <trkpt lat="31.77557000" lon="34.97609000">
        <ele>387.00000</ele>
        <time>2010-01-01T01:40:43Z</time>
      </trkpt>
      <trkpt lat="31.77564000" lon="34.97626000">
        <ele>389.00000</ele>
        <time>2010-01-01T01:40:49Z</time>
      </trkpt>
      <trkpt lat="31.77579000" lon="34.97649000">
        <ele>392.00000</ele>
        <time>2010-01-01T01:40:59Z</time>
      </trkpt>
      <trkpt lat="31.77592000" lon="34.97665000">
        <ele>394.00000</ele>
        <time>2010-01-01T01:41:06Z</time>
      </trkpt>
      <trkpt lat="31.77627000" lon="34.97703000">
        <ele>395.00000</ele>
        <time>2010-01-01T01:41:26Z</time>
      </trkpt>
      <trkpt lat="31.77626000" lon="34.97703000">
        <ele>395.00000</ele>
        <time>2010-01-01T01:41:26Z</time>
      </trkpt>
      <trkpt lat="31.77642000" lon="34.97719000">
        <ele>395.00000</ele>
        <time>2010-01-01T01:41:34Z</time>
      </trkpt>
      <trkpt lat="31.77634000" lon="34.97732000">
        <ele>394.00000</ele>
        <time>2010-01-01T01:41:40Z</time>
      </trkpt>
      <trkpt lat="31.77628000" lon="34.97745000">
        <ele>394.00000</ele>
        <time>2010-01-01T01:41:45Z</time>
      </trkpt>
      <trkpt lat="31.77594000" lon="34.97824000">
        <ele>398.00000</ele>
        <time>2010-01-01T01:42:15Z</time>
      </trkpt>
      <trkpt lat="31.77580000" lon="34.97841000">
        <ele>398.00000</ele>
        <time>2010-01-01T01:42:23Z</time>
      </trkpt>
      <trkpt lat="31.77572000" lon="34.97863000">
        <ele>399.00000</ele>
        <time>2010-01-01T01:42:31Z</time>
      </trkpt>
      <trkpt lat="31.77539000" lon="34.97907000">
        <ele>399.00000</ele>
        <time>2010-01-01T01:42:51Z</time>
      </trkpt>
      <trkpt lat="31.77512000" lon="34.97950000">
        <ele>398.00000</ele>
        <time>2010-01-01T01:43:09Z</time>
      </trkpt>
      <trkpt lat="31.77505000" lon="34.97966000">
        <ele>398.00000</ele>
        <time>2010-01-01T01:43:15Z</time>
      </trkpt>
      <trkpt lat="31.77501000" lon="34.97994000">
        <ele>400.00000</ele>
        <time>2010-01-01T01:43:25Z</time>
      </trkpt>
      <trkpt lat="31.77503000" lon="34.98012000">
        <ele>401.00000</ele>
        <time>2010-01-01T01:43:31Z</time>
      </trkpt>
      <trkpt lat="31.77510000" lon="34.98031000">
        <ele>402.00000</ele>
        <time>2010-01-01T01:43:38Z</time>
      </trkpt>
      <trkpt lat="31.77510000" lon="34.98030000">
        <ele>402.00000</ele>
        <time>2010-01-01T01:43:39Z</time>
      </trkpt>
      <trkpt lat="31.77529000" lon="34.98067000">
        <ele>401.00000</ele>
        <time>2010-01-01T01:43:53Z</time>
      </trkpt>
      <trkpt lat="31.77535000" lon="34.98076000">
        <ele>400.00000</ele>
        <time>2010-01-01T01:43:57Z</time>
      </trkpt>
      <trkpt lat="31.77553000" lon="34.98093000">
        <ele>399.00000</ele>
        <time>2010-01-01T01:44:07Z</time>
      </trkpt>
      <trkpt lat="31.77621000" lon="34.98134000">
        <ele>396.00000</ele>
        <time>2010-01-01T01:44:37Z</time>
      </trkpt>
      <trkpt lat="31.77632000" lon="34.98143000">
        <ele>396.00000</ele>
        <time>2010-01-01T01:44:42Z</time>
      </trkpt>
      <trkpt lat="31.77636000" lon="34.98154000">
        <ele>396.00000</ele>
        <time>2010-01-01T01:44:47Z</time>
      </trkpt>
      <trkpt lat="31.77634000" lon="34.98163000">
        <ele>396.00000</ele>
        <time>2010-01-01T01:44:50Z</time>
      </trkpt>
      <trkpt lat="31.77621000" lon="34.98185000">
        <ele>397.00000</ele>
        <time>2010-01-01T01:44:59Z</time>
      </trkpt>
      <trkpt lat="31.77604000" lon="34.98208000">
        <ele>396.00000</ele>
        <time>2010-01-01T01:45:09Z</time>
      </trkpt>
      <trkpt lat="31.77586000" lon="34.98224000">
        <ele>396.00000</ele>
        <time>2010-01-01T01:45:18Z</time>
      </trkpt>
      <trkpt lat="31.77568000" lon="34.98234000">
        <ele>392.00000</ele>
        <time>2010-01-01T01:45:26Z</time>
      </trkpt>
      <trkpt lat="31.77550000" lon="34.98240000">
        <ele>388.00000</ele>
        <time>2010-01-01T01:45:34Z</time>
      </trkpt>
      <trkpt lat="31.77533000" lon="34.98240000">
        <ele>385.00000</ele>
        <time>2010-01-01T01:45:40Z</time>
      </trkpt>
      <trkpt lat="31.77513000" lon="34.98236000">
        <ele>385.00000</ele>
        <time>2010-01-01T01:45:49Z</time>
      </trkpt>
      <trkpt lat="31.77512000" lon="34.98236000">
        <ele>385.00000</ele>
        <time>2010-01-01T01:45:49Z</time>
      </trkpt>
      <trkpt lat="31.77469000" lon="34.98227000">
        <ele>389.00000</ele>
        <time>2010-01-01T01:46:07Z</time>
      </trkpt>
      <trkpt lat="31.77456000" lon="34.98230000">
        <ele>390.00000</ele>
        <time>2010-01-01T01:46:12Z</time>
      </trkpt>
      <trkpt lat="31.77444000" lon="34.98236000">
        <ele>390.00000</ele>
        <time>2010-01-01T01:46:17Z</time>
      </trkpt>
      <trkpt lat="31.77437000" lon="34.98243000">
        <ele>388.00000</ele>
        <time>2010-01-01T01:46:21Z</time>
      </trkpt>
      <trkpt lat="31.77405000" lon="34.98299000">
        <ele>379.00000</ele>
        <time>2010-01-01T01:46:44Z</time>
      </trkpt>
      <trkpt lat="31.77371000" lon="34.98366000">
        <ele>373.00000</ele>
        <time>2010-01-01T01:47:10Z</time>
      </trkpt>
      <trkpt lat="31.77380000" lon="34.98397000">
        <ele>371.00000</ele>
        <time>2010-01-01T01:47:21Z</time>
      </trkpt>
      <trkpt lat="31.77327000" lon="34.98382000">
        <ele>371.00000</ele>
        <time>2010-01-01T01:47:43Z</time>
      </trkpt>
      <trkpt lat="31.77326000" lon="34.98382000">
        <ele>371.00000</ele>
        <time>2010-01-01T01:47:44Z</time>
      </trkpt>
      <trkpt lat="31.77329000" lon="34.98426000">
        <ele>370.00000</ele>
        <time>2010-01-01T01:47:59Z</time>
      </trkpt>
      <trkpt lat="31.77329000" lon="34.98461000">
        <ele>371.00000</ele>
        <time>2010-01-01T01:48:11Z</time>
      </trkpt>
      <trkpt lat="31.77330000" lon="34.98485000">
        <ele>369.00000</ele>
        <time>2010-01-01T01:48:19Z</time>
      </trkpt>
      <trkpt lat="31.77334000" lon="34.98501000">
        <ele>369.00000</ele>
        <time>2010-01-01T01:48:24Z</time>
      </trkpt>
      <trkpt lat="31.77340000" lon="34.98516000">
        <ele>368.00000</ele>
        <time>2010-01-01T01:48:30Z</time>
      </trkpt>
      <trkpt lat="31.77363000" lon="34.98558000">
        <ele>371.00000</ele>
        <time>2010-01-01T01:48:47Z</time>
      </trkpt>
      <trkpt lat="31.77375000" lon="34.98579000">
        <ele>370.00000</ele>
        <time>2010-01-01T01:48:56Z</time>
      </trkpt>
      <trkpt lat="31.77395000" lon="34.98601000">
        <ele>369.00000</ele>
        <time>2010-01-01T01:49:07Z</time>
      </trkpt>
      <trkpt lat="31.77431000" lon="34.98636000">
        <ele>367.00000</ele>
        <time>2010-01-01T01:49:25Z</time>
      </trkpt>
      <trkpt lat="31.77467000" lon="34.98668000">
        <ele>362.00000</ele>
        <time>2010-01-01T01:49:43Z</time>
      </trkpt>
      <trkpt lat="31.77506000" lon="34.98709000">
        <ele>357.00000</ele>
        <time>2010-01-01T01:50:04Z</time>
      </trkpt>
      <trkpt lat="31.77506000" lon="34.98708000">
        <ele>358.00000</ele>
        <time>2010-01-01T01:50:05Z</time>
      </trkpt>
      <trkpt lat="31.77524000" lon="34.98728000">
        <ele>354.00000</ele>
        <time>2010-01-01T01:50:15Z</time>
      </trkpt>
      <trkpt lat="31.77527000" lon="34.98735000">
        <ele>353.00000</ele>
        <time>2010-01-01T01:50:17Z</time>
      </trkpt>
      <trkpt lat="31.77531000" lon="34.98737000">
        <ele>353.00000</ele>
        <time>2010-01-01T01:50:19Z</time>
      </trkpt>
      <trkpt lat="31.77572000" lon="34.98814000">
        <ele>352.00000</ele>
        <time>2010-01-01T01:50:50Z</time>
      </trkpt>
      <trkpt lat="31.77619000" lon="34.98879000">
        <ele>358.00000</ele>
        <time>2010-01-01T01:51:19Z</time>
      </trkpt>
      <trkpt lat="31.77623000" lon="34.98882000">
        <ele>358.00000</ele>
        <time>2010-01-01T01:51:21Z</time>
      </trkpt>
      <trkpt lat="31.77640000" lon="34.98889000">
        <ele>360.00000</ele>
        <time>2010-01-01T01:51:28Z</time>
      </trkpt>
      <trkpt lat="31.77647000" lon="34.98888000">
        <ele>360.00000</ele>
        <time>2010-01-01T01:51:31Z</time>
      </trkpt>
      <trkpt lat="31.77652000" lon="34.98883000">
        <ele>359.00000</ele>
        <time>2010-01-01T01:51:33Z</time>
      </trkpt>
      <trkpt lat="31.77653000" lon="34.98878000">
        <ele>358.00000</ele>
        <time>2010-01-01T01:51:35Z</time>
      </trkpt>
      <trkpt lat="31.77656000" lon="34.98847000">
        <ele>355.00000</ele>
        <time>2010-01-01T01:51:46Z</time>
      </trkpt>
      <trkpt lat="31.77655000" lon="34.98821000">
        <ele>352.00000</ele>
        <time>2010-01-01T01:51:55Z</time>
      </trkpt>
      <trkpt lat="31.77659000" lon="34.98795000">
        <ele>349.00000</ele>
        <time>2010-01-01T01:52:04Z</time>
      </trkpt>
      <trkpt lat="31.77670000" lon="34.98761000">
        <ele>344.00000</ele>
        <time>2010-01-01T01:52:16Z</time>
      </trkpt>
      <trkpt lat="31.77682000" lon="34.98743000">
        <ele>342.00000</ele>
        <time>2010-01-01T01:52:24Z</time>
      </trkpt>
      <trkpt lat="31.77691000" lon="34.98734000">
        <ele>341.00000</ele>
        <time>2010-01-01T01:52:29Z</time>
      </trkpt>
      <trkpt lat="31.77701000" lon="34.98728000">
        <ele>339.00000</ele>
        <time>2010-01-01T01:52:33Z</time>
      </trkpt>
      <trkpt lat="31.77712000" lon="34.98724000">
        <ele>337.00000</ele>
        <time>2010-01-01T01:52:38Z</time>
      </trkpt>
      <trkpt lat="31.77758000" lon="34.98767000">
        <ele>339.00000</ele>
        <time>2010-01-01T01:53:01Z</time>
      </trkpt>
      <trkpt lat="31.77799000" lon="34.98794000">
        <ele>343.00000</ele>
        <time>2010-01-01T01:53:20Z</time>
      </trkpt>
      <trkpt lat="31.77844000" lon="34.98810000">
        <ele>342.00000</ele>
        <time>2010-01-01T01:53:39Z</time>
      </trkpt>
      <trkpt lat="31.77854000" lon="34.98818000">
        <ele>343.00000</ele>
        <time>2010-01-01T01:53:44Z</time>
      </trkpt>
      <trkpt lat="31.77872000" lon="34.98835000">
        <ele>345.00000</ele>
        <time>2010-01-01T01:53:53Z</time>
      </trkpt>
      <trkpt lat="31.77879000" lon="34.98845000">
        <ele>345.00000</ele>
        <time>2010-01-01T01:53:57Z</time>
      </trkpt>
      <trkpt lat="31.77882000" lon="34.98858000">
        <ele>346.00000</ele>
        <time>2010-01-01T01:54:02Z</time>
      </trkpt>
      <trkpt lat="31.77881000" lon="34.98865000">
        <ele>347.00000</ele>
        <time>2010-01-01T01:54:04Z</time>
      </trkpt>
      <trkpt lat="31.77856000" lon="34.98919000">
        <ele>350.00000</ele>
        <time>2010-01-01T01:54:25Z</time>
      </trkpt>
      <trkpt lat="31.77851000" lon="34.98932000">
        <ele>350.00000</ele>
        <time>2010-01-01T01:54:30Z</time>
      </trkpt>
      <trkpt lat="31.77853000" lon="34.99030000">
        <ele>340.00000</ele>
        <time>2010-01-01T01:55:03Z</time>
      </trkpt>
      <trkpt lat="31.77859000" lon="34.99042000">
        <ele>338.00000</ele>
        <time>2010-01-01T01:55:08Z</time>
      </trkpt>
      <trkpt lat="31.77863000" lon="34.99051000">
        <ele>337.00000</ele>
        <time>2010-01-01T01:55:12Z</time>
      </trkpt>
      <trkpt lat="31.77876000" lon="34.99062000">
        <ele>335.00000</ele>
        <time>2010-01-01T01:55:18Z</time>
      </trkpt>
      <trkpt lat="31.77908000" lon="34.99074000">
        <ele>335.00000</ele>
        <time>2010-01-01T01:55:31Z</time>
      </trkpt>
      <trkpt lat="31.78017000" lon="34.99156000">
        <ele>344.00000</ele>
        <time>2010-01-01T01:56:23Z</time>
      </trkpt>
      <trkpt lat="31.78030000" lon="34.99164000">
        <ele>344.00000</ele>
        <time>2010-01-01T01:56:29Z</time>
      </trkpt>
      <trkpt lat="31.78039000" lon="34.99168000">
        <ele>345.00000</ele>
        <time>2010-01-01T01:56:33Z</time>
      </trkpt>
      <trkpt lat="31.78092000" lon="34.99178000">
        <ele>344.00000</ele>
        <time>2010-01-01T01:56:54Z</time>
      </trkpt>
      <trkpt lat="31.78168000" lon="34.99203000">
        <ele>342.00000</ele>
        <time>2010-01-01T01:57:26Z</time>
      </trkpt>
      <trkpt lat="31.78175000" lon="34.99202000">
        <ele>343.00000</ele>
        <time>2010-01-01T01:57:29Z</time>
      </trkpt>
      <trkpt lat="31.78180000" lon="34.99200000">
        <ele>343.00000</ele>
        <time>2010-01-01T01:57:31Z</time>
      </trkpt>
      <trkpt lat="31.78189000" lon="34.99188000">
        <ele>343.00000</ele>
        <time>2010-01-01T01:57:36Z</time>
      </trkpt>
      <trkpt lat="31.78193000" lon="34.99172000">
        <ele>343.00000</ele>
        <time>2010-01-01T01:57:42Z</time>
      </trkpt>
      <trkpt lat="31.78198000" lon="34.99127000">
        <ele>341.00000</ele>
        <time>2010-01-01T01:57:58Z</time>
      </trkpt>
      <trkpt lat="31.78199000" lon="34.99113000">
        <ele>340.00000</ele>
        <time>2010-01-01T01:58:02Z</time>
      </trkpt>
      <trkpt lat="31.78198000" lon="34.99071000">
        <ele>337.00000</ele>
        <time>2010-01-01T01:58:17Z</time>
      </trkpt>
      <trkpt lat="31.78193000" lon="34.99021000">
        <ele>332.00000</ele>
        <time>2010-01-01T01:58:34Z</time>
      </trkpt>
      <trkpt lat="31.78193000" lon="34.99005000">
        <ele>331.00000</ele>
        <time>2010-01-01T01:58:39Z</time>
      </trkpt>
      <trkpt lat="31.78195000" lon="34.98998000">
        <ele>330.00000</ele>
        <time>2010-01-01T01:58:42Z</time>
      </trkpt>
      <trkpt lat="31.78200000" lon="34.98994000">
        <ele>330.00000</ele>
        <time>2010-01-01T01:58:44Z</time>
      </trkpt>
      <trkpt lat="31.78207000" lon="34.98992000">
        <ele>331.00000</ele>
        <time>2010-01-01T01:58:47Z</time>
      </trkpt>
      <trkpt lat="31.78226000" lon="34.98999000">
        <ele>334.00000</ele>
        <time>2010-01-01T01:58:55Z</time>
      </trkpt>
      <trkpt lat="31.78234000" lon="34.98999000">
        <ele>335.00000</ele>
        <time>2010-01-01T01:58:58Z</time>
      </trkpt>
      <trkpt lat="31.78264000" lon="34.98991000">
        <ele>335.00000</ele>
        <time>2010-01-01T01:59:11Z</time>
      </trkpt>
      <trkpt lat="31.78277000" lon="34.98986000">
        <ele>333.00000</ele>
        <time>2010-01-01T01:59:16Z</time>
      </trkpt>
      <trkpt lat="31.78286000" lon="34.98987000">
        <ele>332.00000</ele>
        <time>2010-01-01T01:59:20Z</time>
      </trkpt>
      <trkpt lat="31.78297000" lon="34.98994000">
        <ele>332.00000</ele>
        <time>2010-01-01T01:59:25Z</time>
      </trkpt>
      <trkpt lat="31.78305000" lon="34.99006000">
        <ele>332.00000</ele>
        <time>2010-01-01T01:59:30Z</time>
      </trkpt>
      <trkpt lat="31.78312000" lon="34.99026000">
        <ele>334.00000</ele>
        <time>2010-01-01T01:59:37Z</time>
      </trkpt>
      <trkpt lat="31.78320000" lon="34.99064000">
        <ele>337.00000</ele>
        <time>2010-01-01T01:59:51Z</time>
      </trkpt>
      <trkpt lat="31.78330000" lon="34.99090000">
        <ele>339.00000</ele>
        <time>2010-01-01T02:00:00Z</time>
      </trkpt>
      <trkpt lat="31.78336000" lon="34.99106000">
        <ele>341.00000</ele>
        <time>2010-01-01T02:00:06Z</time>
      </trkpt>
      <trkpt lat="31.78349000" lon="34.99129000">
        <ele>343.00000</ele>
        <time>2010-01-01T02:00:16Z</time>
      </trkpt>
      <trkpt lat="31.78363000" lon="34.99147000">
        <ele>344.00000</ele>
        <time>2010-01-01T02:00:24Z</time>
      </trkpt>
      <trkpt lat="31.78390000" lon="34.99172000">
        <ele>345.00000</ele>
        <time>2010-01-01T02:00:38Z</time>
      </trkpt>
      <trkpt lat="31.78399000" lon="34.99177000">
        <ele>345.00000</ele>
        <time>2010-01-01T02:00:42Z</time>
      </trkpt>
      <trkpt lat="31.78422000" lon="34.99186000">
        <ele>345.00000</ele>
        <time>2010-01-01T02:00:51Z</time>
      </trkpt>
      <trkpt lat="31.78461000" lon="34.99191000">
        <ele>348.00000</ele>
        <time>2010-01-01T02:01:07Z</time>
      </trkpt>
      <trkpt lat="31.78490000" lon="34.99184000">
        <ele>350.00000</ele>
        <time>2010-01-01T02:01:19Z</time>
      </trkpt>
      <trkpt lat="31.78496000" lon="34.99180000">
        <ele>350.00000</ele>
        <time>2010-01-01T02:01:22Z</time>
      </trkpt>
      <trkpt lat="31.78500000" lon="34.99174000">
        <ele>350.00000</ele>
        <time>2010-01-01T02:01:24Z</time>
      </trkpt>
      <trkpt lat="31.78505000" lon="34.99160000">
        <ele>348.00000</ele>
        <time>2010-01-01T02:01:29Z</time>
      </trkpt>
      <trkpt lat="31.78505000" lon="34.99144000">
        <ele>347.00000</ele>
        <time>2010-01-01T02:01:35Z</time>
      </trkpt>
      <trkpt lat="31.78496000" lon="34.99116000">
        <ele>343.00000</ele>
        <time>2010-01-01T02:01:45Z</time>
      </trkpt>
      <trkpt lat="31.78490000" lon="34.99078000">
        <ele>341.00000</ele>
        <time>2010-01-01T02:01:58Z</time>
      </trkpt>
      <trkpt lat="31.78493000" lon="34.99053000">
        <ele>340.00000</ele>
        <time>2010-01-01T02:02:07Z</time>
      </trkpt>
      <trkpt lat="31.78500000" lon="34.99035000">
        <ele>341.00000</ele>
        <time>2010-01-01T02:02:14Z</time>
      </trkpt>
      <trkpt lat="31.78513000" lon="34.99017000">
        <ele>342.00000</ele>
        <time>2010-01-01T02:02:22Z</time>
      </trkpt>
      <trkpt lat="31.78533000" lon="34.99002000">
        <ele>341.00000</ele>
        <time>2010-01-01T02:02:31Z</time>
      </trkpt>
      <trkpt lat="31.78546000" lon="34.98995000">
        <ele>339.00000</ele>
        <time>2010-01-01T02:02:37Z</time>
      </trkpt>
      <trkpt lat="31.78555000" lon="34.98995000">
        <ele>339.00000</ele>
        <time>2010-01-01T02:02:40Z</time>
      </trkpt>
      <trkpt lat="31.78585000" lon="34.99016000">
        <ele>341.00000</ele>
        <time>2010-01-01T02:02:54Z</time>
      </trkpt>
      <trkpt lat="31.78592000" lon="34.99017000">
        <ele>341.00000</ele>
        <time>2010-01-01T02:02:57Z</time>
      </trkpt>
      <trkpt lat="31.78599000" lon="34.99015000">
        <ele>341.00000</ele>
        <time>2010-01-01T02:03:00Z</time>
      </trkpt>
      <trkpt lat="31.78614000" lon="34.99005000">
        <ele>338.00000</ele>
        <time>2010-01-01T02:03:07Z</time>
      </trkpt>
      <trkpt lat="31.78634000" lon="34.98968000">
        <ele>338.00000</ele>
        <time>2010-01-01T02:03:22Z</time>
      </trkpt>
      <trkpt lat="31.78636000" lon="34.98953000">
        <ele>337.00000</ele>
        <time>2010-01-01T02:03:27Z</time>
      </trkpt>
      <trkpt lat="31.78639000" lon="34.98905000">
        <ele>334.00000</ele>
        <time>2010-01-01T02:03:43Z</time>
      </trkpt>
      <trkpt lat="31.78647000" lon="34.98841000">
        <ele>334.00000</ele>
        <time>2010-01-01T02:04:05Z</time>
      </trkpt>
      <trkpt lat="31.78647000" lon="34.98825000">
        <ele>334.00000</ele>
        <time>2010-01-01T02:04:11Z</time>
      </trkpt>
      <trkpt lat="31.78641000" lon="34.98762000">
        <ele>336.00000</ele>
        <time>2010-01-01T02:04:32Z</time>
      </trkpt>
      <trkpt lat="31.78642000" lon="34.98705000">
        <ele>338.00000</ele>
        <time>2010-01-01T02:04:52Z</time>
      </trkpt>
      <trkpt lat="31.78644000" lon="34.98665000">
        <ele>336.00000</ele>
        <time>2010-01-01T02:05:05Z</time>
      </trkpt>
      <trkpt lat="31.78647000" lon="34.98659000">
        <ele>335.00000</ele>
        <time>2010-01-01T02:05:08Z</time>
      </trkpt>
      <trkpt lat="31.78651000" lon="34.98655000">
        <ele>335.00000</ele>
        <time>2010-01-01T02:05:10Z</time>
      </trkpt>
      <trkpt lat="31.78658000" lon="34.98654000">
        <ele>335.00000</ele>
        <time>2010-01-01T02:05:13Z</time>
      </trkpt>
      <trkpt lat="31.78672000" lon="34.98658000">
        <ele>336.00000</ele>
        <time>2010-01-01T02:05:19Z</time>
      </trkpt>
      <trkpt lat="31.78719000" lon="34.98680000">
        <ele>340.00000</ele>
        <time>2010-01-01T02:05:39Z</time>
      </trkpt>
      <trkpt lat="31.78727000" lon="34.98688000">
        <ele>340.00000</ele>
        <time>2010-01-01T02:05:43Z</time>
      </trkpt>
      <trkpt lat="31.78740000" lon="34.98711000">
        <ele>339.00000</ele>
        <time>2010-01-01T02:05:52Z</time>
      </trkpt>
      <trkpt lat="31.78745000" lon="34.98729000">
        <ele>340.00000</ele>
        <time>2010-01-01T02:05:59Z</time>
      </trkpt>
      <trkpt lat="31.78747000" lon="34.98741000">
        <ele>339.00000</ele>
        <time>2010-01-01T02:06:03Z</time>
      </trkpt>
      <trkpt lat="31.78745000" lon="34.98763000">
        <ele>339.00000</ele>
        <time>2010-01-01T02:06:11Z</time>
      </trkpt>
      <trkpt lat="31.78736000" lon="34.98795000">
        <ele>341.00000</ele>
        <time>2010-01-01T02:06:22Z</time>
      </trkpt>
      <trkpt lat="31.78729000" lon="34.98817000">
        <ele>342.00000</ele>
        <time>2010-01-01T02:06:30Z</time>
      </trkpt>
      <trkpt lat="31.78729000" lon="34.98828000">
        <ele>342.00000</ele>
        <time>2010-01-01T02:06:34Z</time>
      </trkpt>
      <trkpt lat="31.78731000" lon="34.98839000">
        <ele>342.00000</ele>
        <time>2010-01-01T02:06:38Z</time>
      </trkpt>
      <trkpt lat="31.78742000" lon="34.98866000">
        <ele>340.00000</ele>
        <time>2010-01-01T02:06:48Z</time>
      </trkpt>
      <trkpt lat="31.78759000" lon="34.98961000">
        <ele>336.00000</ele>
        <time>2010-01-01T02:07:21Z</time>
      </trkpt>
      <trkpt lat="31.78760000" lon="34.98976000">
        <ele>337.00000</ele>
        <time>2010-01-01T02:07:26Z</time>
      </trkpt>
      <trkpt lat="31.78759000" lon="34.98987000">
        <ele>337.00000</ele>
        <time>2010-01-01T02:07:30Z</time>
      </trkpt>
      <trkpt lat="31.78755000" lon="34.99001000">
        <ele>337.00000</ele>
        <time>2010-01-01T02:07:35Z</time>
      </trkpt>
      <trkpt lat="31.78734000" lon="34.99034000">
        <ele>343.00000</ele>
        <time>2010-01-01T02:07:49Z</time>
      </trkpt>
      <trkpt lat="31.78723000" lon="34.99068000">
        <ele>343.00000</ele>
        <time>2010-01-01T02:08:01Z</time>
      </trkpt>
      <trkpt lat="31.78720000" lon="34.99085000">
        <ele>342.00000</ele>
        <time>2010-01-01T02:08:07Z</time>
      </trkpt>
      <trkpt lat="31.78722000" lon="34.99124000">
        <ele>339.00000</ele>
        <time>2010-01-01T02:08:20Z</time>
      </trkpt>
      <trkpt lat="31.78720000" lon="34.99173000">
        <ele>338.00000</ele>
        <time>2010-01-01T02:08:37Z</time>
      </trkpt>
      <trkpt lat="31.78720000" lon="34.99172000">
        <ele>338.00000</ele>
        <time>2010-01-01T02:08:37Z</time>
      </trkpt>
      <trkpt lat="31.78721000" lon="34.99192000">
        <ele>338.00000</ele>
        <time>2010-01-01T02:08:44Z</time>
      </trkpt>
      <trkpt lat="31.78718000" lon="34.99219000">
        <ele>337.00000</ele>
        <time>2010-01-01T02:08:53Z</time>
      </trkpt>
      <trkpt lat="31.78723000" lon="34.99238000">
        <ele>334.00000</ele>
        <time>2010-01-01T02:09:00Z</time>
      </trkpt>
      <trkpt lat="31.78734000" lon="34.99266000">
        <ele>331.00000</ele>
        <time>2010-01-01T02:09:11Z</time>
      </trkpt>
      <trkpt lat="31.78737000" lon="34.99283000">
        <ele>329.00000</ele>
        <time>2010-01-01T02:09:17Z</time>
      </trkpt>
      <trkpt lat="31.78737000" lon="34.99296000">
        <ele>328.00000</ele>
        <time>2010-01-01T02:09:21Z</time>
      </trkpt>
      <trkpt lat="31.78735000" lon="34.99307000">
        <ele>328.00000</ele>
        <time>2010-01-01T02:09:25Z</time>
      </trkpt>
      <trkpt lat="31.78731000" lon="34.99317000">
        <ele>328.00000</ele>
        <time>2010-01-01T02:09:29Z</time>
      </trkpt>
      <trkpt lat="31.78717000" lon="34.99336000">
        <ele>329.00000</ele>
        <time>2010-01-01T02:09:37Z</time>
      </trkpt>
      <trkpt lat="31.78716000" lon="34.99341000">
        <ele>329.00000</ele>
        <time>2010-01-01T02:09:39Z</time>
      </trkpt>
      <trkpt lat="31.78725000" lon="34.99385000">
        <ele>328.00000</ele>
        <time>2010-01-01T02:09:54Z</time>
      </trkpt>
      <trkpt lat="31.78719000" lon="34.99424000">
        <ele>332.00000</ele>
        <time>2010-01-01T02:10:08Z</time>
      </trkpt>
      <trkpt lat="31.78716000" lon="34.99482000">
        <ele>332.00000</ele>
        <time>2010-01-01T02:10:28Z</time>
      </trkpt>
      <trkpt lat="31.78713000" lon="34.99493000">
        <ele>333.00000</ele>
        <time>2010-01-01T02:10:31Z</time>
      </trkpt>
      <trkpt lat="31.78705000" lon="34.99505000">
        <ele>333.00000</ele>
        <time>2010-01-01T02:10:37Z</time>
      </trkpt>
      <trkpt lat="31.78696000" lon="34.99512000">
        <ele>334.00000</ele>
        <time>2010-01-01T02:10:41Z</time>
      </trkpt>
      <trkpt lat="31.78687000" lon="34.99516000">
        <ele>335.00000</ele>
        <time>2010-01-01T02:10:45Z</time>
      </trkpt>
      <trkpt lat="31.78673000" lon="34.99527000">
        <ele>335.00000</ele>
        <time>2010-01-01T02:10:52Z</time>
      </trkpt>
      <trkpt lat="31.78650000" lon="34.99551000">
        <ele>336.00000</ele>
        <time>2010-01-01T02:11:04Z</time>
      </trkpt>
      <trkpt lat="31.78629000" lon="34.99578000">
        <ele>336.00000</ele>
        <time>2010-01-01T02:11:16Z</time>
      </trkpt>
      <trkpt lat="31.78613000" lon="34.99602000">
        <ele>337.00000</ele>
        <time>2010-01-01T02:11:27Z</time>
      </trkpt>
      <trkpt lat="31.78609000" lon="34.99613000">
        <ele>337.00000</ele>
        <time>2010-01-01T02:11:31Z</time>
      </trkpt>
      <trkpt lat="31.78608000" lon="34.99631000">
        <ele>336.00000</ele>
        <time>2010-01-01T02:11:37Z</time>
      </trkpt>
      <trkpt lat="31.78648000" lon="34.99629000">
        <ele>330.00000</ele>
        <time>2010-01-01T02:11:53Z</time>
      </trkpt>
      <trkpt lat="31.78655000" lon="34.99626000">
        <ele>329.00000</ele>
        <time>2010-01-01T02:11:56Z</time>
      </trkpt>
      <trkpt lat="31.78676000" lon="34.99617000">
        <ele>328.00000</ele>
        <time>2010-01-01T02:12:05Z</time>
      </trkpt>
      <trkpt lat="31.78684000" lon="34.99616000">
        <ele>328.00000</ele>
        <time>2010-01-01T02:12:08Z</time>
      </trkpt>
      <trkpt lat="31.78703000" lon="34.99626000">
        <ele>328.00000</ele>
        <time>2010-01-01T02:12:16Z</time>
      </trkpt>
      <trkpt lat="31.78697000" lon="34.99638000">
        <ele>327.00000</ele>
        <time>2010-01-01T02:12:21Z</time>
      </trkpt>
      <trkpt lat="31.78706000" lon="34.99701000">
        <ele>324.00000</ele>
        <time>2010-01-01T02:12:43Z</time>
      </trkpt>
      <trkpt lat="31.78708000" lon="34.99738000">
        <ele>321.00000</ele>
        <time>2010-01-01T02:12:56Z</time>
      </trkpt>
      <trkpt lat="31.78694000" lon="34.99778000">
        <ele>318.00000</ele>
        <time>2010-01-01T02:13:10Z</time>
      </trkpt>
      <trkpt lat="31.78684000" lon="34.99806000">
        <ele>316.00000</ele>
        <time>2010-01-01T02:13:21Z</time>
      </trkpt>
      <trkpt lat="31.78711000" lon="34.99786000">
        <ele>317.00000</ele>
        <time>2010-01-01T02:13:33Z</time>
      </trkpt>
      <trkpt lat="31.78712000" lon="34.99803000">
        <ele>316.00000</ele>
        <time>2010-01-01T02:13:39Z</time>
      </trkpt>
      <trkpt lat="31.78726000" lon="34.99823000">
        <ele>319.00000</ele>
        <time>2010-01-01T02:13:48Z</time>
      </trkpt>
      <trkpt lat="31.78726000" lon="34.99835000">
        <ele>319.00000</ele>
        <time>2010-01-01T02:13:52Z</time>
      </trkpt>
      <trkpt lat="31.78721000" lon="34.99863000">
        <ele>315.00000</ele>
        <time>2010-01-01T02:14:02Z</time>
      </trkpt>
      <trkpt lat="31.78719000" lon="34.99867000">
        <ele>314.00000</ele>
        <time>2010-01-01T02:14:03Z</time>
      </trkpt>
      <trkpt lat="31.78712000" lon="34.99882000">
        <ele>311.00000</ele>
        <time>2010-01-01T02:14:09Z</time>
      </trkpt>
      <trkpt lat="31.78707000" lon="34.99893000">
        <ele>309.00000</ele>
        <time>2010-01-01T02:14:13Z</time>
      </trkpt>
      <trkpt lat="31.78702000" lon="34.99918000">
        <ele>304.00000</ele>
        <time>2010-01-01T02:14:22Z</time>
      </trkpt>
      <trkpt lat="31.78701000" lon="34.99931000">
        <ele>303.00000</ele>
        <time>2010-01-01T02:14:27Z</time>
      </trkpt>
      <trkpt lat="31.78702000" lon="34.99948000">
        <ele>301.00000</ele>
        <time>2010-01-01T02:14:32Z</time>
      </trkpt>
      <trkpt lat="31.78704000" lon="34.99961000">
        <ele>300.00000</ele>
        <time>2010-01-01T02:14:37Z</time>
      </trkpt>
      <trkpt lat="31.78708000" lon="34.99968000">
        <ele>300.00000</ele>
        <time>2010-01-01T02:14:40Z</time>
      </trkpt>
      <trkpt lat="31.78725000" lon="34.99991000">
        <ele>299.00000</ele>
        <time>2010-01-01T02:14:50Z</time>
      </trkpt>
      <trkpt lat="31.78738000" lon="35.00011000">
        <ele>298.00000</ele>
        <time>2010-01-01T02:14:59Z</time>
      </trkpt>
      <trkpt lat="31.78753000" lon="35.00041000">
        <ele>296.00000</ele>
        <time>2010-01-01T02:15:11Z</time>
      </trkpt>
      <trkpt lat="31.78753000" lon="35.00049000">
        <ele>295.00000</ele>
        <time>2010-01-01T02:15:13Z</time>
      </trkpt>
      <trkpt lat="31.78750000" lon="35.00079000">
        <ele>292.00000</ele>
        <time>2010-01-01T02:15:24Z</time>
      </trkpt>
      <trkpt lat="31.78741000" lon="35.00125000">
        <ele>293.00000</ele>
        <time>2010-01-01T02:15:40Z</time>
      </trkpt>
      <trkpt lat="31.78731000" lon="35.00158000">
        <ele>296.00000</ele>
        <time>2010-01-01T02:15:52Z</time>
      </trkpt>
      <trkpt lat="31.78726000" lon="35.00191000">
        <ele>298.00000</ele>
        <time>2010-01-01T02:16:03Z</time>
      </trkpt>
      <trkpt lat="31.78722000" lon="35.00201000">
        <ele>299.00000</ele>
        <time>2010-01-01T02:16:07Z</time>
      </trkpt>
      <trkpt lat="31.78708000" lon="35.00208000">
        <ele>298.00000</ele>
        <time>2010-01-01T02:16:13Z</time>
      </trkpt>
      <trkpt lat="31.78681000" lon="35.00245000">
        <ele>301.00000</ele>
        <time>2010-01-01T02:16:29Z</time>
      </trkpt>
      <trkpt lat="31.78658000" lon="35.00260000">
        <ele>302.00000</ele>
        <time>2010-01-01T02:16:40Z</time>
      </trkpt>
      <trkpt lat="31.78628000" lon="35.00251000">
        <ele>299.00000</ele>
        <time>2010-01-01T02:16:52Z</time>
      </trkpt>
      <trkpt lat="31.78602000" lon="35.00234000">
        <ele>296.00000</ele>
        <time>2010-01-01T02:17:04Z</time>
      </trkpt>
      <trkpt lat="31.78592000" lon="35.00211000">
        <ele>292.00000</ele>
        <time>2010-01-01T02:17:13Z</time>
      </trkpt>
      <trkpt lat="31.78601000" lon="35.00182000">
        <ele>287.00000</ele>
        <time>2010-01-01T02:17:23Z</time>
      </trkpt>
      <trkpt lat="31.78595000" lon="35.00164000">
        <ele>285.00000</ele>
        <time>2010-01-01T02:17:30Z</time>
      </trkpt>
      <trkpt lat="31.78585000" lon="35.00155000">
        <ele>285.00000</ele>
        <time>2010-01-01T02:17:35Z</time>
      </trkpt>
      <trkpt lat="31.78569000" lon="35.00151000">
        <ele>284.00000</ele>
        <time>2010-01-01T02:17:42Z</time>
      </trkpt>
      <trkpt lat="31.78552000" lon="35.00154000">
        <ele>283.00000</ele>
        <time>2010-01-01T02:17:49Z</time>
      </trkpt>
      <trkpt lat="31.78524000" lon="35.00165000">
        <ele>281.00000</ele>
        <time>2010-01-01T02:18:00Z</time>
      </trkpt>
      <trkpt lat="31.78479000" lon="35.00190000">
        <ele>279.00000</ele>
        <time>2010-01-01T02:18:20Z</time>
      </trkpt>
      <trkpt lat="31.78451000" lon="35.00209000">
        <ele>278.00000</ele>
        <time>2010-01-01T02:18:33Z</time>
      </trkpt>
      <trkpt lat="31.78417000" lon="35.00186000">
        <ele>275.00000</ele>
        <time>2010-01-01T02:18:49Z</time>
      </trkpt>
      <trkpt lat="31.78392000" lon="35.00174000">
        <ele>274.00000</ele>
        <time>2010-01-01T02:19:00Z</time>
      </trkpt>
      <trkpt lat="31.78376000" lon="35.00173000">
        <ele>274.00000</ele>
        <time>2010-01-01T02:19:06Z</time>
      </trkpt>
      <trkpt lat="31.78358000" lon="35.00181000">
        <ele>273.00000</ele>
        <time>2010-01-01T02:19:14Z</time>
      </trkpt>
      <trkpt lat="31.78312000" lon="35.00193000">
        <ele>272.00000</ele>
        <time>2010-01-01T02:19:33Z</time>
      </trkpt>
      <trkpt lat="31.78259000" lon="35.00198000">
        <ele>271.00000</ele>
        <time>2010-01-01T02:19:54Z</time>
      </trkpt>
    </trkseg>
  </trk>
</gpx>

